<?xml version="1.0" encoding="UTF-8" standalone="no" ?>
<gpx xmlns="http://www.topografix.com/GPX/1/1" xmlns:xsi="http://www.w3.org/2001/XMLSchema-instance" xsi:schemaLocation="http://www.topografix.com/GPX/1/1 http://www.topografix.com/GPX/1/1/gpx.xsd" version="1.1" creator="VisuGPX - https://www.visugpx.com">
  <metadata>
    <name>quessoy</name>
  </metadata>
  <trk>
    <name><![CDATA[rando Quessoy 30 mars 2019]]></name>
    <trkseg>
      <trkpt lat="48.43991" lon="-2.64965">
        <ele>81</ele>
        <time>2019-03-30T13:44:59Z</time>
      </trkpt>
      <trkpt lat="48.43991" lon="-2.64965">
        <ele>81</ele>
        <time>2019-03-30T13:45:00Z</time>
      </trkpt>
      <trkpt lat="48.43994" lon="-2.64971">
        <ele>80</ele>
        <time>2019-03-30T13:45:24Z</time>
      </trkpt>
      <trkpt lat="48.43994" lon="-2.64979">
        <ele>79</ele>
        <time>2019-03-30T13:45:28Z</time>
      </trkpt>
      <trkpt lat="48.43985" lon="-2.64992">
        <ele>79</ele>
        <time>2019-03-30T13:45:35Z</time>
      </trkpt>
      <trkpt lat="48.43981" lon="-2.64998">
        <ele>79</ele>
        <time>2019-03-30T13:45:38Z</time>
      </trkpt>
      <trkpt lat="48.43979" lon="-2.65004">
        <ele>77</ele>
        <time>2019-03-30T13:45:42Z</time>
      </trkpt>
      <trkpt lat="48.4397" lon="-2.65014">
        <ele>77</ele>
        <time>2019-03-30T13:45:47Z</time>
      </trkpt>
      <trkpt lat="48.43959" lon="-2.6504">
        <ele>74</ele>
        <time>2019-03-30T13:46:02Z</time>
      </trkpt>
      <trkpt lat="48.43955" lon="-2.65054">
        <ele>72</ele>
        <time>2019-03-30T13:46:11Z</time>
      </trkpt>
      <trkpt lat="48.43947" lon="-2.65073">
        <ele>72</ele>
        <time>2019-03-30T13:46:25Z</time>
      </trkpt>
      <trkpt lat="48.43935" lon="-2.65098">
        <ele>72</ele>
        <time>2019-03-30T13:46:42Z</time>
      </trkpt>
      <trkpt lat="48.43931" lon="-2.65103">
        <ele>73</ele>
        <time>2019-03-30T13:46:47Z</time>
      </trkpt>
      <trkpt lat="48.43925" lon="-2.65114">
        <ele>74</ele>
        <time>2019-03-30T13:46:55Z</time>
      </trkpt>
      <trkpt lat="48.43922" lon="-2.65121">
        <ele>77</ele>
        <time>2019-03-30T13:47:00Z</time>
      </trkpt>
      <trkpt lat="48.43894" lon="-2.65152">
        <ele>81</ele>
        <time>2019-03-30T13:47:30Z</time>
      </trkpt>
      <trkpt lat="48.4389" lon="-2.65157">
        <ele>83</ele>
        <time>2019-03-30T13:47:35Z</time>
      </trkpt>
      <trkpt lat="48.43882" lon="-2.65167">
        <ele>85</ele>
        <time>2019-03-30T13:47:43Z</time>
      </trkpt>
      <trkpt lat="48.43878" lon="-2.65173">
        <ele>86</ele>
        <time>2019-03-30T13:47:47Z</time>
      </trkpt>
      <trkpt lat="48.43874" lon="-2.65176">
        <ele>86</ele>
        <time>2019-03-30T13:47:52Z</time>
      </trkpt>
      <trkpt lat="48.43853" lon="-2.65204">
        <ele>87</ele>
        <time>2019-03-30T13:48:14Z</time>
      </trkpt>
      <trkpt lat="48.43852" lon="-2.65211">
        <ele>89</ele>
        <time>2019-03-30T13:48:19Z</time>
      </trkpt>
      <trkpt lat="48.43851" lon="-2.65219">
        <ele>90</ele>
        <time>2019-03-30T13:48:24Z</time>
      </trkpt>
      <trkpt lat="48.43852" lon="-2.65227">
        <ele>88</ele>
        <time>2019-03-30T13:48:29Z</time>
      </trkpt>
      <trkpt lat="48.43853" lon="-2.65236">
        <ele>87</ele>
        <time>2019-03-30T13:48:33Z</time>
      </trkpt>
      <trkpt lat="48.43853" lon="-2.65242">
        <ele>85</ele>
        <time>2019-03-30T13:48:37Z</time>
      </trkpt>
      <trkpt lat="48.43853" lon="-2.6525">
        <ele>85</ele>
        <time>2019-03-30T13:48:41Z</time>
      </trkpt>
      <trkpt lat="48.43854" lon="-2.65258">
        <ele>84</ele>
        <time>2019-03-30T13:48:45Z</time>
      </trkpt>
      <trkpt lat="48.43852" lon="-2.65266">
        <ele>83</ele>
        <time>2019-03-30T13:48:50Z</time>
      </trkpt>
      <trkpt lat="48.43852" lon="-2.65282">
        <ele>82</ele>
        <time>2019-03-30T13:49:01Z</time>
      </trkpt>
      <trkpt lat="48.4385" lon="-2.65289">
        <ele>82</ele>
        <time>2019-03-30T13:49:06Z</time>
      </trkpt>
      <trkpt lat="48.43823" lon="-2.65311">
        <ele>83</ele>
        <time>2019-03-30T13:49:38Z</time>
      </trkpt>
      <trkpt lat="48.43815" lon="-2.6532">
        <ele>84</ele>
        <time>2019-03-30T13:49:44Z</time>
      </trkpt>
      <trkpt lat="48.43812" lon="-2.65324">
        <ele>86</ele>
        <time>2019-03-30T13:49:47Z</time>
      </trkpt>
      <trkpt lat="48.43808" lon="-2.6533">
        <ele>87</ele>
        <time>2019-03-30T13:49:51Z</time>
      </trkpt>
      <trkpt lat="48.43803" lon="-2.65335">
        <ele>89</ele>
        <time>2019-03-30T13:49:55Z</time>
      </trkpt>
      <trkpt lat="48.43799" lon="-2.65339">
        <ele>89</ele>
        <time>2019-03-30T13:49:58Z</time>
      </trkpt>
      <trkpt lat="48.43781" lon="-2.65366">
        <ele>89</ele>
        <time>2019-03-30T13:50:21Z</time>
      </trkpt>
      <trkpt lat="48.43776" lon="-2.65367">
        <ele>89</ele>
        <time>2019-03-30T13:50:27Z</time>
      </trkpt>
      <trkpt lat="48.43765" lon="-2.65363">
        <ele>88</ele>
        <time>2019-03-30T13:50:36Z</time>
      </trkpt>
      <trkpt lat="48.4376" lon="-2.65361">
        <ele>88</ele>
        <time>2019-03-30T13:50:41Z</time>
      </trkpt>
      <trkpt lat="48.43755" lon="-2.65361">
        <ele>88</ele>
        <time>2019-03-30T13:50:47Z</time>
      </trkpt>
      <trkpt lat="48.43745" lon="-2.65354">
        <ele>88</ele>
        <time>2019-03-30T13:50:56Z</time>
      </trkpt>
      <trkpt lat="48.43741" lon="-2.65351">
        <ele>88</ele>
        <time>2019-03-30T13:51:00Z</time>
      </trkpt>
      <trkpt lat="48.43736" lon="-2.65351">
        <ele>88</ele>
        <time>2019-03-30T13:51:04Z</time>
      </trkpt>
      <trkpt lat="48.43725" lon="-2.65349">
        <ele>87</ele>
        <time>2019-03-30T13:51:14Z</time>
      </trkpt>
      <trkpt lat="48.43721" lon="-2.65346">
        <ele>87</ele>
        <time>2019-03-30T13:51:19Z</time>
      </trkpt>
      <trkpt lat="48.43717" lon="-2.65342">
        <ele>87</ele>
        <time>2019-03-30T13:51:23Z</time>
      </trkpt>
      <trkpt lat="48.43712" lon="-2.65339">
        <ele>88</ele>
        <time>2019-03-30T13:51:27Z</time>
      </trkpt>
      <trkpt lat="48.43708" lon="-2.65335">
        <ele>88</ele>
        <time>2019-03-30T13:51:31Z</time>
      </trkpt>
      <trkpt lat="48.43677" lon="-2.65313">
        <ele>89</ele>
        <time>2019-03-30T13:52:02Z</time>
      </trkpt>
      <trkpt lat="48.43668" lon="-2.65308">
        <ele>89</ele>
        <time>2019-03-30T13:52:10Z</time>
      </trkpt>
      <trkpt lat="48.43657" lon="-2.65294">
        <ele>88</ele>
        <time>2019-03-30T13:52:21Z</time>
      </trkpt>
      <trkpt lat="48.43653" lon="-2.65289">
        <ele>88</ele>
        <time>2019-03-30T13:52:25Z</time>
      </trkpt>
      <trkpt lat="48.43649" lon="-2.65286">
        <ele>87</ele>
        <time>2019-03-30T13:52:29Z</time>
      </trkpt>
      <trkpt lat="48.43642" lon="-2.65275">
        <ele>87</ele>
        <time>2019-03-30T13:52:37Z</time>
      </trkpt>
      <trkpt lat="48.43639" lon="-2.6527">
        <ele>87</ele>
        <time>2019-03-30T13:52:42Z</time>
      </trkpt>
      <trkpt lat="48.43636" lon="-2.65264">
        <ele>87</ele>
        <time>2019-03-30T13:52:46Z</time>
      </trkpt>
      <trkpt lat="48.43626" lon="-2.65246">
        <ele>89</ele>
        <time>2019-03-30T13:53:01Z</time>
      </trkpt>
      <trkpt lat="48.43612" lon="-2.65225">
        <ele>92</ele>
        <time>2019-03-30T13:53:17Z</time>
      </trkpt>
      <trkpt lat="48.43602" lon="-2.65218">
        <ele>94</ele>
        <time>2019-03-30T13:53:25Z</time>
      </trkpt>
      <trkpt lat="48.43597" lon="-2.65217">
        <ele>95</ele>
        <time>2019-03-30T13:53:29Z</time>
      </trkpt>
      <trkpt lat="48.43593" lon="-2.65219">
        <ele>95</ele>
        <time>2019-03-30T13:53:34Z</time>
      </trkpt>
      <trkpt lat="48.43589" lon="-2.65224">
        <ele>96</ele>
        <time>2019-03-30T13:53:39Z</time>
      </trkpt>
      <trkpt lat="48.43584" lon="-2.65226">
        <ele>96</ele>
        <time>2019-03-30T13:54:32Z</time>
      </trkpt>
      <trkpt lat="48.43581" lon="-2.65222">
        <ele>96</ele>
        <time>2019-03-30T13:56:00Z</time>
      </trkpt>
      <trkpt lat="48.43576" lon="-2.6522">
        <ele>94</ele>
        <time>2019-03-30T13:56:19Z</time>
      </trkpt>
      <trkpt lat="48.43571" lon="-2.65223">
        <ele>94</ele>
        <time>2019-03-30T13:56:56Z</time>
      </trkpt>
      <trkpt lat="48.43566" lon="-2.65223">
        <ele>96</ele>
        <time>2019-03-30T13:57:00Z</time>
      </trkpt>
      <trkpt lat="48.43556" lon="-2.6522">
        <ele>95</ele>
        <time>2019-03-30T13:57:07Z</time>
      </trkpt>
      <trkpt lat="48.43525" lon="-2.65225">
        <ele>92</ele>
        <time>2019-03-30T13:57:28Z</time>
      </trkpt>
      <trkpt lat="48.43504" lon="-2.65232">
        <ele>89</ele>
        <time>2019-03-30T13:57:43Z</time>
      </trkpt>
      <trkpt lat="48.43499" lon="-2.65233">
        <ele>88</ele>
        <time>2019-03-30T13:57:46Z</time>
      </trkpt>
      <trkpt lat="48.43479" lon="-2.65248">
        <ele>87</ele>
        <time>2019-03-30T13:57:55Z</time>
      </trkpt>
      <trkpt lat="48.43474" lon="-2.65244">
        <ele>86</ele>
        <time>2019-03-30T13:58:01Z</time>
      </trkpt>
      <trkpt lat="48.43454" lon="-2.65244">
        <ele>84</ele>
        <time>2019-03-30T13:58:17Z</time>
      </trkpt>
      <trkpt lat="48.43444" lon="-2.65248">
        <ele>85</ele>
        <time>2019-03-30T13:58:26Z</time>
      </trkpt>
      <trkpt lat="48.43409" lon="-2.65261">
        <ele>89</ele>
        <time>2019-03-30T13:58:49Z</time>
      </trkpt>
      <trkpt lat="48.43403" lon="-2.65264">
        <ele>91</ele>
        <time>2019-03-30T13:58:53Z</time>
      </trkpt>
      <trkpt lat="48.43399" lon="-2.65266">
        <ele>92</ele>
        <time>2019-03-30T13:58:56Z</time>
      </trkpt>
      <trkpt lat="48.43372" lon="-2.65261">
        <ele>94</ele>
        <time>2019-03-30T13:59:14Z</time>
      </trkpt>
      <trkpt lat="48.43368" lon="-2.65258">
        <ele>94</ele>
        <time>2019-03-30T13:59:19Z</time>
      </trkpt>
      <trkpt lat="48.43364" lon="-2.65254">
        <ele>94</ele>
        <time>2019-03-30T13:59:22Z</time>
      </trkpt>
      <trkpt lat="48.4336" lon="-2.65249">
        <ele>93</ele>
        <time>2019-03-30T13:59:26Z</time>
      </trkpt>
      <trkpt lat="48.43334" lon="-2.6521">
        <ele>96</ele>
        <time>2019-03-30T13:59:48Z</time>
      </trkpt>
      <trkpt lat="48.43315" lon="-2.65182">
        <ele>95</ele>
        <time>2019-03-30T14:00:06Z</time>
      </trkpt>
      <trkpt lat="48.43301" lon="-2.65172">
        <ele>94</ele>
        <time>2019-03-30T14:00:16Z</time>
      </trkpt>
      <trkpt lat="48.43296" lon="-2.65169">
        <ele>93</ele>
        <time>2019-03-30T14:00:20Z</time>
      </trkpt>
      <trkpt lat="48.43291" lon="-2.6517">
        <ele>93</ele>
        <time>2019-03-30T14:00:24Z</time>
      </trkpt>
      <trkpt lat="48.43282" lon="-2.65166">
        <ele>92</ele>
        <time>2019-03-30T14:00:32Z</time>
      </trkpt>
      <trkpt lat="48.43277" lon="-2.65165">
        <ele>92</ele>
        <time>2019-03-30T14:00:35Z</time>
      </trkpt>
      <trkpt lat="48.43268" lon="-2.65169">
        <ele>91</ele>
        <time>2019-03-30T14:00:42Z</time>
      </trkpt>
      <trkpt lat="48.43263" lon="-2.65169">
        <ele>90</ele>
        <time>2019-03-30T14:00:45Z</time>
      </trkpt>
      <trkpt lat="48.43248" lon="-2.65168">
        <ele>88</ele>
        <time>2019-03-30T14:00:57Z</time>
      </trkpt>
      <trkpt lat="48.43242" lon="-2.65169">
        <ele>88</ele>
        <time>2019-03-30T14:01:01Z</time>
      </trkpt>
      <trkpt lat="48.43238" lon="-2.65172">
        <ele>88</ele>
        <time>2019-03-30T14:01:04Z</time>
      </trkpt>
      <trkpt lat="48.43232" lon="-2.65174">
        <ele>88</ele>
        <time>2019-03-30T14:01:07Z</time>
      </trkpt>
      <trkpt lat="48.43218" lon="-2.65174">
        <ele>88</ele>
        <time>2019-03-30T14:01:21Z</time>
      </trkpt>
      <trkpt lat="48.43213" lon="-2.65172">
        <ele>88</ele>
        <time>2019-03-30T14:01:34Z</time>
      </trkpt>
      <trkpt lat="48.43208" lon="-2.65168">
        <ele>89</ele>
        <time>2019-03-30T14:01:37Z</time>
      </trkpt>
      <trkpt lat="48.43198" lon="-2.6517">
        <ele>89</ele>
        <time>2019-03-30T14:01:44Z</time>
      </trkpt>
      <trkpt lat="48.43183" lon="-2.65165">
        <ele>87</ele>
        <time>2019-03-30T14:01:54Z</time>
      </trkpt>
      <trkpt lat="48.43178" lon="-2.65167">
        <ele>86</ele>
        <time>2019-03-30T14:01:58Z</time>
      </trkpt>
      <trkpt lat="48.43168" lon="-2.65167">
        <ele>85</ele>
        <time>2019-03-30T14:02:05Z</time>
      </trkpt>
      <trkpt lat="48.43148" lon="-2.65156">
        <ele>84</ele>
        <time>2019-03-30T14:02:21Z</time>
      </trkpt>
      <trkpt lat="48.43128" lon="-2.65141">
        <ele>85</ele>
        <time>2019-03-30T14:02:35Z</time>
      </trkpt>
      <trkpt lat="48.43123" lon="-2.65141">
        <ele>85</ele>
        <time>2019-03-30T14:02:38Z</time>
      </trkpt>
      <trkpt lat="48.4312" lon="-2.65147">
        <ele>84</ele>
        <time>2019-03-30T14:02:41Z</time>
      </trkpt>
      <trkpt lat="48.4309" lon="-2.65132">
        <ele>82</ele>
        <time>2019-03-30T14:03:00Z</time>
      </trkpt>
      <trkpt lat="48.43085" lon="-2.65129">
        <ele>81</ele>
        <time>2019-03-30T14:03:05Z</time>
      </trkpt>
      <trkpt lat="48.43074" lon="-2.65124">
        <ele>79</ele>
        <time>2019-03-30T14:03:12Z</time>
      </trkpt>
      <trkpt lat="48.43053" lon="-2.65116">
        <ele>75</ele>
        <time>2019-03-30T14:03:28Z</time>
      </trkpt>
      <trkpt lat="48.43011" lon="-2.65103">
        <ele>77</ele>
        <time>2019-03-30T14:03:59Z</time>
      </trkpt>
      <trkpt lat="48.42987" lon="-2.65089">
        <ele>79</ele>
        <time>2019-03-30T14:04:19Z</time>
      </trkpt>
      <trkpt lat="48.42983" lon="-2.65086">
        <ele>79</ele>
        <time>2019-03-30T14:04:22Z</time>
      </trkpt>
      <trkpt lat="48.42967" lon="-2.65082">
        <ele>78</ele>
        <time>2019-03-30T14:04:33Z</time>
      </trkpt>
      <trkpt lat="48.42922" lon="-2.65071">
        <ele>78</ele>
        <time>2019-03-30T14:05:05Z</time>
      </trkpt>
      <trkpt lat="48.42895" lon="-2.65065">
        <ele>80</ele>
        <time>2019-03-30T14:05:24Z</time>
      </trkpt>
      <trkpt lat="48.4289" lon="-2.65064">
        <ele>81</ele>
        <time>2019-03-30T14:05:28Z</time>
      </trkpt>
      <trkpt lat="48.42885" lon="-2.65068">
        <ele>81</ele>
        <time>2019-03-30T14:05:32Z</time>
      </trkpt>
      <trkpt lat="48.42879" lon="-2.65068">
        <ele>82</ele>
        <time>2019-03-30T14:05:38Z</time>
      </trkpt>
      <trkpt lat="48.42874" lon="-2.65065">
        <ele>83</ele>
        <time>2019-03-30T14:05:43Z</time>
      </trkpt>
      <trkpt lat="48.4287" lon="-2.65061">
        <ele>82</ele>
        <time>2019-03-30T14:05:45Z</time>
      </trkpt>
      <trkpt lat="48.42865" lon="-2.65062">
        <ele>81</ele>
        <time>2019-03-30T14:05:48Z</time>
      </trkpt>
      <trkpt lat="48.4286" lon="-2.65065">
        <ele>81</ele>
        <time>2019-03-30T14:05:50Z</time>
      </trkpt>
      <trkpt lat="48.42818" lon="-2.65062">
        <ele>78</ele>
        <time>2019-03-30T14:06:22Z</time>
      </trkpt>
      <trkpt lat="48.42813" lon="-2.65062">
        <ele>78</ele>
        <time>2019-03-30T14:06:25Z</time>
      </trkpt>
      <trkpt lat="48.42808" lon="-2.65061">
        <ele>77</ele>
        <time>2019-03-30T14:06:29Z</time>
      </trkpt>
      <trkpt lat="48.42803" lon="-2.65059">
        <ele>77</ele>
        <time>2019-03-30T14:06:33Z</time>
      </trkpt>
      <trkpt lat="48.42797" lon="-2.65059">
        <ele>77</ele>
        <time>2019-03-30T14:06:36Z</time>
      </trkpt>
      <trkpt lat="48.42758" lon="-2.65048">
        <ele>66</ele>
        <time>2019-03-30T14:07:06Z</time>
      </trkpt>
      <trkpt lat="48.42757" lon="-2.65041">
        <ele>65</ele>
        <time>2019-03-30T14:07:23Z</time>
      </trkpt>
      <trkpt lat="48.42757" lon="-2.65034">
        <ele>63</ele>
        <time>2019-03-30T14:07:26Z</time>
      </trkpt>
      <trkpt lat="48.4276" lon="-2.65027">
        <ele>63</ele>
        <time>2019-03-30T14:07:30Z</time>
      </trkpt>
      <trkpt lat="48.4277" lon="-2.6501">
        <ele>65</ele>
        <time>2019-03-30T14:07:40Z</time>
      </trkpt>
      <trkpt lat="48.42776" lon="-2.64997">
        <ele>65</ele>
        <time>2019-03-30T14:07:48Z</time>
      </trkpt>
      <trkpt lat="48.42782" lon="-2.64982">
        <ele>66</ele>
        <time>2019-03-30T14:07:56Z</time>
      </trkpt>
      <trkpt lat="48.42784" lon="-2.64974">
        <ele>66</ele>
        <time>2019-03-30T14:08:00Z</time>
      </trkpt>
      <trkpt lat="48.42788" lon="-2.64969">
        <ele>66</ele>
        <time>2019-03-30T14:08:03Z</time>
      </trkpt>
      <trkpt lat="48.42796" lon="-2.64958">
        <ele>69</ele>
        <time>2019-03-30T14:08:10Z</time>
      </trkpt>
      <trkpt lat="48.42814" lon="-2.64918">
        <ele>69</ele>
        <time>2019-03-30T14:08:31Z</time>
      </trkpt>
      <trkpt lat="48.42823" lon="-2.64899">
        <ele>68</ele>
        <time>2019-03-30T14:08:43Z</time>
      </trkpt>
      <trkpt lat="48.42826" lon="-2.64895">
        <ele>69</ele>
        <time>2019-03-30T14:08:47Z</time>
      </trkpt>
      <trkpt lat="48.4283" lon="-2.64888">
        <ele>69</ele>
        <time>2019-03-30T14:08:51Z</time>
      </trkpt>
      <trkpt lat="48.42841" lon="-2.64864">
        <ele>71</ele>
        <time>2019-03-30T14:09:04Z</time>
      </trkpt>
      <trkpt lat="48.42844" lon="-2.64857">
        <ele>71</ele>
        <time>2019-03-30T14:09:08Z</time>
      </trkpt>
      <trkpt lat="48.42858" lon="-2.64833">
        <ele>72</ele>
        <time>2019-03-30T14:09:25Z</time>
      </trkpt>
      <trkpt lat="48.42862" lon="-2.64826">
        <ele>72</ele>
        <time>2019-03-30T14:09:29Z</time>
      </trkpt>
      <trkpt lat="48.42864" lon="-2.64818">
        <ele>72</ele>
        <time>2019-03-30T14:09:33Z</time>
      </trkpt>
      <trkpt lat="48.4286" lon="-2.64803">
        <ele>73</ele>
        <time>2019-03-30T14:09:41Z</time>
      </trkpt>
      <trkpt lat="48.42858" lon="-2.64796">
        <ele>74</ele>
        <time>2019-03-30T14:09:45Z</time>
      </trkpt>
      <trkpt lat="48.42856" lon="-2.6479">
        <ele>74</ele>
        <time>2019-03-30T14:09:48Z</time>
      </trkpt>
      <trkpt lat="48.42853" lon="-2.6477">
        <ele>76</ele>
        <time>2019-03-30T14:09:57Z</time>
      </trkpt>
      <trkpt lat="48.42844" lon="-2.64751">
        <ele>75</ele>
        <time>2019-03-30T14:10:07Z</time>
      </trkpt>
      <trkpt lat="48.4284" lon="-2.64744">
        <ele>75</ele>
        <time>2019-03-30T14:10:10Z</time>
      </trkpt>
      <trkpt lat="48.42842" lon="-2.64737">
        <ele>75</ele>
        <time>2019-03-30T14:10:13Z</time>
      </trkpt>
      <trkpt lat="48.42841" lon="-2.64729">
        <ele>74</ele>
        <time>2019-03-30T14:10:17Z</time>
      </trkpt>
      <trkpt lat="48.42837" lon="-2.64723">
        <ele>74</ele>
        <time>2019-03-30T14:10:20Z</time>
      </trkpt>
      <trkpt lat="48.42829" lon="-2.64711">
        <ele>74</ele>
        <time>2019-03-30T14:10:25Z</time>
      </trkpt>
      <trkpt lat="48.42824" lon="-2.64691">
        <ele>73</ele>
        <time>2019-03-30T14:10:37Z</time>
      </trkpt>
      <trkpt lat="48.42815" lon="-2.64674">
        <ele>72</ele>
        <time>2019-03-30T14:10:49Z</time>
      </trkpt>
      <trkpt lat="48.42814" lon="-2.64667">
        <ele>70</ele>
        <time>2019-03-30T14:10:52Z</time>
      </trkpt>
      <trkpt lat="48.42812" lon="-2.6466">
        <ele>70</ele>
        <time>2019-03-30T14:10:56Z</time>
      </trkpt>
      <trkpt lat="48.42805" lon="-2.64647">
        <ele>69</ele>
        <time>2019-03-30T14:11:04Z</time>
      </trkpt>
      <trkpt lat="48.42801" lon="-2.64643">
        <ele>69</ele>
        <time>2019-03-30T14:11:08Z</time>
      </trkpt>
      <trkpt lat="48.42801" lon="-2.64629">
        <ele>69</ele>
        <time>2019-03-30T14:11:17Z</time>
      </trkpt>
      <trkpt lat="48.42795" lon="-2.64614">
        <ele>68</ele>
        <time>2019-03-30T14:11:25Z</time>
      </trkpt>
      <trkpt lat="48.42782" lon="-2.64588">
        <ele>67</ele>
        <time>2019-03-30T14:11:36Z</time>
      </trkpt>
      <trkpt lat="48.42778" lon="-2.64583">
        <ele>67</ele>
        <time>2019-03-30T14:11:41Z</time>
      </trkpt>
      <trkpt lat="48.4276" lon="-2.64567">
        <ele>63</ele>
        <time>2019-03-30T14:11:56Z</time>
      </trkpt>
      <trkpt lat="48.42736" lon="-2.64539">
        <ele>58</ele>
        <time>2019-03-30T14:12:16Z</time>
      </trkpt>
      <trkpt lat="48.42732" lon="-2.64536">
        <ele>57</ele>
        <time>2019-03-30T14:12:20Z</time>
      </trkpt>
      <trkpt lat="48.42728" lon="-2.64531">
        <ele>58</ele>
        <time>2019-03-30T14:12:24Z</time>
      </trkpt>
      <trkpt lat="48.42725" lon="-2.64524">
        <ele>58</ele>
        <time>2019-03-30T14:12:29Z</time>
      </trkpt>
      <trkpt lat="48.42721" lon="-2.64529">
        <ele>58</ele>
        <time>2019-03-30T14:12:33Z</time>
      </trkpt>
      <trkpt lat="48.4272" lon="-2.64537">
        <ele>58</ele>
        <time>2019-03-30T14:12:37Z</time>
      </trkpt>
      <trkpt lat="48.42715" lon="-2.6454">
        <ele>58</ele>
        <time>2019-03-30T14:12:42Z</time>
      </trkpt>
      <trkpt lat="48.42689" lon="-2.64534">
        <ele>59</ele>
        <time>2019-03-30T14:12:57Z</time>
      </trkpt>
      <trkpt lat="48.42686" lon="-2.64529">
        <ele>59</ele>
        <time>2019-03-30T14:13:00Z</time>
      </trkpt>
      <trkpt lat="48.42676" lon="-2.64523">
        <ele>58</ele>
        <time>2019-03-30T14:13:07Z</time>
      </trkpt>
      <trkpt lat="48.4265" lon="-2.64524">
        <ele>60</ele>
        <time>2019-03-30T14:13:29Z</time>
      </trkpt>
      <trkpt lat="48.42645" lon="-2.64519">
        <ele>58</ele>
        <time>2019-03-30T14:13:33Z</time>
      </trkpt>
      <trkpt lat="48.42644" lon="-2.64511">
        <ele>56</ele>
        <time>2019-03-30T14:13:38Z</time>
      </trkpt>
      <trkpt lat="48.42643" lon="-2.64503">
        <ele>54</ele>
        <time>2019-03-30T14:13:42Z</time>
      </trkpt>
      <trkpt lat="48.42645" lon="-2.64462">
        <ele>56</ele>
        <time>2019-03-30T14:13:58Z</time>
      </trkpt>
      <trkpt lat="48.42645" lon="-2.64447">
        <ele>56</ele>
        <time>2019-03-30T14:14:05Z</time>
      </trkpt>
      <trkpt lat="48.42645" lon="-2.64432">
        <ele>56</ele>
        <time>2019-03-30T14:14:11Z</time>
      </trkpt>
      <trkpt lat="48.42645" lon="-2.64426">
        <ele>55</ele>
        <time>2019-03-30T14:14:14Z</time>
      </trkpt>
      <trkpt lat="48.42646" lon="-2.64394">
        <ele>57</ele>
        <time>2019-03-30T14:14:27Z</time>
      </trkpt>
      <trkpt lat="48.42644" lon="-2.64387">
        <ele>57</ele>
        <time>2019-03-30T14:14:30Z</time>
      </trkpt>
      <trkpt lat="48.4264" lon="-2.64381">
        <ele>58</ele>
        <time>2019-03-30T14:14:33Z</time>
      </trkpt>
      <trkpt lat="48.42637" lon="-2.64377">
        <ele>59</ele>
        <time>2019-03-30T14:14:36Z</time>
      </trkpt>
      <trkpt lat="48.42628" lon="-2.64367">
        <ele>61</ele>
        <time>2019-03-30T14:14:43Z</time>
      </trkpt>
      <trkpt lat="48.42614" lon="-2.64329">
        <ele>65</ele>
        <time>2019-03-30T14:15:01Z</time>
      </trkpt>
      <trkpt lat="48.42612" lon="-2.64322">
        <ele>65</ele>
        <time>2019-03-30T14:15:04Z</time>
      </trkpt>
      <trkpt lat="48.42609" lon="-2.64315">
        <ele>65</ele>
        <time>2019-03-30T14:15:08Z</time>
      </trkpt>
      <trkpt lat="48.42604" lon="-2.64309">
        <ele>65</ele>
        <time>2019-03-30T14:15:12Z</time>
      </trkpt>
      <trkpt lat="48.42602" lon="-2.64303">
        <ele>66</ele>
        <time>2019-03-30T14:15:15Z</time>
      </trkpt>
      <trkpt lat="48.42597" lon="-2.64303">
        <ele>65</ele>
        <time>2019-03-30T14:15:20Z</time>
      </trkpt>
      <trkpt lat="48.42592" lon="-2.64307">
        <ele>63</ele>
        <time>2019-03-30T14:15:23Z</time>
      </trkpt>
      <trkpt lat="48.42578" lon="-2.64335">
        <ele>64</ele>
        <time>2019-03-30T14:15:34Z</time>
      </trkpt>
      <trkpt lat="48.42563" lon="-2.64354">
        <ele>65</ele>
        <time>2019-03-30T14:15:40Z</time>
      </trkpt>
      <trkpt lat="48.42553" lon="-2.64368">
        <ele>65</ele>
        <time>2019-03-30T14:15:44Z</time>
      </trkpt>
      <trkpt lat="48.42551" lon="-2.64377">
        <ele>65</ele>
        <time>2019-03-30T14:15:46Z</time>
      </trkpt>
      <trkpt lat="48.42542" lon="-2.64394">
        <ele>66</ele>
        <time>2019-03-30T14:15:50Z</time>
      </trkpt>
      <trkpt lat="48.42524" lon="-2.64411">
        <ele>66</ele>
        <time>2019-03-30T14:15:56Z</time>
      </trkpt>
      <trkpt lat="48.42505" lon="-2.64418">
        <ele>65</ele>
        <time>2019-03-30T14:16:02Z</time>
      </trkpt>
      <trkpt lat="48.42498" lon="-2.6442">
        <ele>65</ele>
        <time>2019-03-30T14:16:04Z</time>
      </trkpt>
      <trkpt lat="48.42488" lon="-2.6443">
        <ele>64</ele>
        <time>2019-03-30T14:16:08Z</time>
      </trkpt>
      <trkpt lat="48.42482" lon="-2.64432">
        <ele>63</ele>
        <time>2019-03-30T14:16:10Z</time>
      </trkpt>
      <trkpt lat="48.42478" lon="-2.6443">
        <ele>62</ele>
        <time>2019-03-30T14:16:12Z</time>
      </trkpt>
      <trkpt lat="48.42466" lon="-2.6441">
        <ele>61</ele>
        <time>2019-03-30T14:16:20Z</time>
      </trkpt>
      <trkpt lat="48.42462" lon="-2.64393">
        <ele>59</ele>
        <time>2019-03-30T14:16:26Z</time>
      </trkpt>
      <trkpt lat="48.42461" lon="-2.64387">
        <ele>58</ele>
        <time>2019-03-30T14:16:29Z</time>
      </trkpt>
      <trkpt lat="48.4246" lon="-2.6438">
        <ele>59</ele>
        <time>2019-03-30T14:16:35Z</time>
      </trkpt>
      <trkpt lat="48.42455" lon="-2.64377">
        <ele>59</ele>
        <time>2019-03-30T14:16:40Z</time>
      </trkpt>
      <trkpt lat="48.42449" lon="-2.64377">
        <ele>60</ele>
        <time>2019-03-30T14:16:45Z</time>
      </trkpt>
      <trkpt lat="48.42441" lon="-2.64369">
        <ele>62</ele>
        <time>2019-03-30T14:16:53Z</time>
      </trkpt>
      <trkpt lat="48.4243" lon="-2.64367">
        <ele>64</ele>
        <time>2019-03-30T14:17:01Z</time>
      </trkpt>
      <trkpt lat="48.42395" lon="-2.64369">
        <ele>65</ele>
        <time>2019-03-30T14:17:12Z</time>
      </trkpt>
      <trkpt lat="48.42381" lon="-2.64368">
        <ele>65</ele>
        <time>2019-03-30T14:17:16Z</time>
      </trkpt>
      <trkpt lat="48.42374" lon="-2.64364">
        <ele>65</ele>
        <time>2019-03-30T14:17:18Z</time>
      </trkpt>
      <trkpt lat="48.42364" lon="-2.64352">
        <ele>64</ele>
        <time>2019-03-30T14:17:21Z</time>
      </trkpt>
      <trkpt lat="48.42356" lon="-2.64331">
        <ele>64</ele>
        <time>2019-03-30T14:17:25Z</time>
      </trkpt>
      <trkpt lat="48.42354" lon="-2.6432">
        <ele>64</ele>
        <time>2019-03-30T14:17:27Z</time>
      </trkpt>
      <trkpt lat="48.42351" lon="-2.6431">
        <ele>64</ele>
        <time>2019-03-30T14:17:29Z</time>
      </trkpt>
      <trkpt lat="48.42346" lon="-2.64307">
        <ele>64</ele>
        <time>2019-03-30T14:17:31Z</time>
      </trkpt>
      <trkpt lat="48.42331" lon="-2.64314">
        <ele>63</ele>
        <time>2019-03-30T14:17:34Z</time>
      </trkpt>
      <trkpt lat="48.42314" lon="-2.64343">
        <ele>65</ele>
        <time>2019-03-30T14:17:40Z</time>
      </trkpt>
      <trkpt lat="48.42299" lon="-2.64384">
        <ele>66</ele>
        <time>2019-03-30T14:17:50Z</time>
      </trkpt>
      <trkpt lat="48.42294" lon="-2.64418">
        <ele>63</ele>
        <time>2019-03-30T14:18:02Z</time>
      </trkpt>
      <trkpt lat="48.42294" lon="-2.64443">
        <ele>61</ele>
        <time>2019-03-30T14:18:15Z</time>
      </trkpt>
      <trkpt lat="48.42292" lon="-2.64459">
        <ele>61</ele>
        <time>2019-03-30T14:18:19Z</time>
      </trkpt>
      <trkpt lat="48.4229" lon="-2.64475">
        <ele>60</ele>
        <time>2019-03-30T14:18:23Z</time>
      </trkpt>
      <trkpt lat="48.42286" lon="-2.645">
        <ele>60</ele>
        <time>2019-03-30T14:18:29Z</time>
      </trkpt>
      <trkpt lat="48.42285" lon="-2.64524">
        <ele>61</ele>
        <time>2019-03-30T14:18:36Z</time>
      </trkpt>
      <trkpt lat="48.42286" lon="-2.64532">
        <ele>62</ele>
        <time>2019-03-30T14:18:40Z</time>
      </trkpt>
      <trkpt lat="48.42284" lon="-2.64549">
        <ele>62</ele>
        <time>2019-03-30T14:18:45Z</time>
      </trkpt>
      <trkpt lat="48.42285" lon="-2.64581">
        <ele>60</ele>
        <time>2019-03-30T14:18:51Z</time>
      </trkpt>
      <trkpt lat="48.42311" lon="-2.64673">
        <ele>64</ele>
        <time>2019-03-30T14:19:24Z</time>
      </trkpt>
      <trkpt lat="48.42313" lon="-2.6468">
        <ele>64</ele>
        <time>2019-03-30T14:19:28Z</time>
      </trkpt>
      <trkpt lat="48.42315" lon="-2.64687">
        <ele>65</ele>
        <time>2019-03-30T14:19:31Z</time>
      </trkpt>
      <trkpt lat="48.42314" lon="-2.64718">
        <ele>67</ele>
        <time>2019-03-30T14:19:46Z</time>
      </trkpt>
      <trkpt lat="48.42313" lon="-2.64725">
        <ele>67</ele>
        <time>2019-03-30T14:19:49Z</time>
      </trkpt>
      <trkpt lat="48.42311" lon="-2.64733">
        <ele>68</ele>
        <time>2019-03-30T14:19:53Z</time>
      </trkpt>
      <trkpt lat="48.42296" lon="-2.64755">
        <ele>68</ele>
        <time>2019-03-30T14:20:06Z</time>
      </trkpt>
      <trkpt lat="48.42273" lon="-2.64777">
        <ele>69</ele>
        <time>2019-03-30T14:20:22Z</time>
      </trkpt>
      <trkpt lat="48.42269" lon="-2.64781">
        <ele>69</ele>
        <time>2019-03-30T14:20:24Z</time>
      </trkpt>
      <trkpt lat="48.42251" lon="-2.6482">
        <ele>69</ele>
        <time>2019-03-30T14:20:34Z</time>
      </trkpt>
      <trkpt lat="48.42226" lon="-2.64928">
        <ele>69</ele>
        <time>2019-03-30T14:21:04Z</time>
      </trkpt>
      <trkpt lat="48.42224" lon="-2.64951">
        <ele>69</ele>
        <time>2019-03-30T14:21:15Z</time>
      </trkpt>
      <trkpt lat="48.42222" lon="-2.64958">
        <ele>67</ele>
        <time>2019-03-30T14:21:20Z</time>
      </trkpt>
      <trkpt lat="48.42216" lon="-2.6497">
        <ele>66</ele>
        <time>2019-03-30T14:21:27Z</time>
      </trkpt>
      <trkpt lat="48.42212" lon="-2.64976">
        <ele>66</ele>
        <time>2019-03-30T14:21:31Z</time>
      </trkpt>
      <trkpt lat="48.42192" lon="-2.64989">
        <ele>63</ele>
        <time>2019-03-30T14:21:45Z</time>
      </trkpt>
      <trkpt lat="48.42187" lon="-2.64992">
        <ele>63</ele>
        <time>2019-03-30T14:21:50Z</time>
      </trkpt>
      <trkpt lat="48.42182" lon="-2.64989">
        <ele>65</ele>
        <time>2019-03-30T14:21:54Z</time>
      </trkpt>
      <trkpt lat="48.42179" lon="-2.64983">
        <ele>66</ele>
        <time>2019-03-30T14:21:59Z</time>
      </trkpt>
      <trkpt lat="48.42151" lon="-2.64981">
        <ele>68</ele>
        <time>2019-03-30T14:22:20Z</time>
      </trkpt>
      <trkpt lat="48.42137" lon="-2.64982">
        <ele>69</ele>
        <time>2019-03-30T14:22:30Z</time>
      </trkpt>
      <trkpt lat="48.42121" lon="-2.64978">
        <ele>68</ele>
        <time>2019-03-30T14:22:40Z</time>
      </trkpt>
      <trkpt lat="48.42107" lon="-2.64985">
        <ele>68</ele>
        <time>2019-03-30T14:22:52Z</time>
      </trkpt>
      <trkpt lat="48.42101" lon="-2.64985">
        <ele>68</ele>
        <time>2019-03-30T14:22:56Z</time>
      </trkpt>
      <trkpt lat="48.42096" lon="-2.64983">
        <ele>69</ele>
        <time>2019-03-30T14:23:00Z</time>
      </trkpt>
      <trkpt lat="48.42066" lon="-2.64977">
        <ele>73</ele>
        <time>2019-03-30T14:23:20Z</time>
      </trkpt>
      <trkpt lat="48.42061" lon="-2.64977">
        <ele>74</ele>
        <time>2019-03-30T14:23:29Z</time>
      </trkpt>
      <trkpt lat="48.42051" lon="-2.6498">
        <ele>74</ele>
        <time>2019-03-30T14:23:35Z</time>
      </trkpt>
      <trkpt lat="48.42026" lon="-2.64993">
        <ele>75</ele>
        <time>2019-03-30T14:23:53Z</time>
      </trkpt>
      <trkpt lat="48.42022" lon="-2.64997">
        <ele>75</ele>
        <time>2019-03-30T14:23:56Z</time>
      </trkpt>
      <trkpt lat="48.42003" lon="-2.65013">
        <ele>79</ele>
        <time>2019-03-30T14:24:10Z</time>
      </trkpt>
      <trkpt lat="48.41999" lon="-2.65017">
        <ele>80</ele>
        <time>2019-03-30T14:24:14Z</time>
      </trkpt>
      <trkpt lat="48.41985" lon="-2.65027">
        <ele>82</ele>
        <time>2019-03-30T14:24:26Z</time>
      </trkpt>
      <trkpt lat="48.4198" lon="-2.65025">
        <ele>85</ele>
        <time>2019-03-30T14:24:31Z</time>
      </trkpt>
      <trkpt lat="48.41979" lon="-2.65018">
        <ele>86</ele>
        <time>2019-03-30T14:24:36Z</time>
      </trkpt>
      <trkpt lat="48.41981" lon="-2.6501">
        <ele>86</ele>
        <time>2019-03-30T14:24:39Z</time>
      </trkpt>
      <trkpt lat="48.4198" lon="-2.65002">
        <ele>86</ele>
        <time>2019-03-30T14:24:42Z</time>
      </trkpt>
      <trkpt lat="48.41979" lon="-2.64993">
        <ele>84</ele>
        <time>2019-03-30T14:24:45Z</time>
      </trkpt>
      <trkpt lat="48.41977" lon="-2.64977">
        <ele>81</ele>
        <time>2019-03-30T14:24:51Z</time>
      </trkpt>
      <trkpt lat="48.41977" lon="-2.6497">
        <ele>80</ele>
        <time>2019-03-30T14:24:54Z</time>
      </trkpt>
      <trkpt lat="48.41975" lon="-2.64963">
        <ele>80</ele>
        <time>2019-03-30T14:24:59Z</time>
      </trkpt>
      <trkpt lat="48.41975" lon="-2.64949">
        <ele>81</ele>
        <time>2019-03-30T14:25:09Z</time>
      </trkpt>
      <trkpt lat="48.41973" lon="-2.64935">
        <ele>82</ele>
        <time>2019-03-30T14:25:16Z</time>
      </trkpt>
      <trkpt lat="48.4197" lon="-2.64929">
        <ele>82</ele>
        <time>2019-03-30T14:25:19Z</time>
      </trkpt>
      <trkpt lat="48.41961" lon="-2.64919">
        <ele>82</ele>
        <time>2019-03-30T14:25:28Z</time>
      </trkpt>
      <trkpt lat="48.41957" lon="-2.64918">
        <ele>81</ele>
        <time>2019-03-30T14:25:31Z</time>
      </trkpt>
      <trkpt lat="48.41954" lon="-2.64904">
        <ele>78</ele>
        <time>2019-03-30T14:25:41Z</time>
      </trkpt>
      <trkpt lat="48.41938" lon="-2.64846">
        <ele>71</ele>
        <time>2019-03-30T14:26:10Z</time>
      </trkpt>
      <trkpt lat="48.41936" lon="-2.6484">
        <ele>70</ele>
        <time>2019-03-30T14:26:13Z</time>
      </trkpt>
      <trkpt lat="48.41932" lon="-2.64836">
        <ele>69</ele>
        <time>2019-03-30T14:26:19Z</time>
      </trkpt>
      <trkpt lat="48.41927" lon="-2.64837">
        <ele>70</ele>
        <time>2019-03-30T14:26:22Z</time>
      </trkpt>
      <trkpt lat="48.41921" lon="-2.64835">
        <ele>70</ele>
        <time>2019-03-30T14:26:25Z</time>
      </trkpt>
      <trkpt lat="48.41915" lon="-2.64835">
        <ele>70</ele>
        <time>2019-03-30T14:26:28Z</time>
      </trkpt>
      <trkpt lat="48.419" lon="-2.64839">
        <ele>70</ele>
        <time>2019-03-30T14:26:34Z</time>
      </trkpt>
      <trkpt lat="48.41896" lon="-2.64844">
        <ele>70</ele>
        <time>2019-03-30T14:26:36Z</time>
      </trkpt>
      <trkpt lat="48.41892" lon="-2.64847">
        <ele>69</ele>
        <time>2019-03-30T14:26:39Z</time>
      </trkpt>
      <trkpt lat="48.41887" lon="-2.64848">
        <ele>69</ele>
        <time>2019-03-30T14:26:42Z</time>
      </trkpt>
      <trkpt lat="48.41883" lon="-2.64853">
        <ele>69</ele>
        <time>2019-03-30T14:26:44Z</time>
      </trkpt>
      <trkpt lat="48.41864" lon="-2.64858">
        <ele>68</ele>
        <time>2019-03-30T14:26:50Z</time>
      </trkpt>
      <trkpt lat="48.41852" lon="-2.6487">
        <ele>69</ele>
        <time>2019-03-30T14:26:54Z</time>
      </trkpt>
      <trkpt lat="48.41846" lon="-2.64873">
        <ele>69</ele>
        <time>2019-03-30T14:26:57Z</time>
      </trkpt>
      <trkpt lat="48.4184" lon="-2.64874">
        <ele>69</ele>
        <time>2019-03-30T14:27:00Z</time>
      </trkpt>
      <trkpt lat="48.41834" lon="-2.64875">
        <ele>70</ele>
        <time>2019-03-30T14:27:03Z</time>
      </trkpt>
      <trkpt lat="48.41829" lon="-2.64874">
        <ele>71</ele>
        <time>2019-03-30T14:27:06Z</time>
      </trkpt>
      <trkpt lat="48.41823" lon="-2.64875">
        <ele>73</ele>
        <time>2019-03-30T14:27:11Z</time>
      </trkpt>
      <trkpt lat="48.41802" lon="-2.64892">
        <ele>75</ele>
        <time>2019-03-30T14:27:29Z</time>
      </trkpt>
      <trkpt lat="48.41797" lon="-2.6489">
        <ele>76</ele>
        <time>2019-03-30T14:27:32Z</time>
      </trkpt>
      <trkpt lat="48.41792" lon="-2.64891">
        <ele>79</ele>
        <time>2019-03-30T14:27:36Z</time>
      </trkpt>
      <trkpt lat="48.41788" lon="-2.64894">
        <ele>80</ele>
        <time>2019-03-30T14:27:39Z</time>
      </trkpt>
      <trkpt lat="48.41771" lon="-2.64906">
        <ele>83</ele>
        <time>2019-03-30T14:27:46Z</time>
      </trkpt>
      <trkpt lat="48.41766" lon="-2.64909">
        <ele>82</ele>
        <time>2019-03-30T14:27:48Z</time>
      </trkpt>
      <trkpt lat="48.41762" lon="-2.64913">
        <ele>81</ele>
        <time>2019-03-30T14:27:50Z</time>
      </trkpt>
      <trkpt lat="48.41757" lon="-2.64916">
        <ele>81</ele>
        <time>2019-03-30T14:27:52Z</time>
      </trkpt>
      <trkpt lat="48.41748" lon="-2.64917">
        <ele>82</ele>
        <time>2019-03-30T14:27:56Z</time>
      </trkpt>
      <trkpt lat="48.41736" lon="-2.6492">
        <ele>83</ele>
        <time>2019-03-30T14:28:01Z</time>
      </trkpt>
      <trkpt lat="48.41729" lon="-2.64931">
        <ele>85</ele>
        <time>2019-03-30T14:28:10Z</time>
      </trkpt>
      <trkpt lat="48.41724" lon="-2.64929">
        <ele>85</ele>
        <time>2019-03-30T14:28:13Z</time>
      </trkpt>
      <trkpt lat="48.41715" lon="-2.64932">
        <ele>85</ele>
        <time>2019-03-30T14:28:20Z</time>
      </trkpt>
      <trkpt lat="48.4171" lon="-2.64934">
        <ele>84</ele>
        <time>2019-03-30T14:28:22Z</time>
      </trkpt>
      <trkpt lat="48.41706" lon="-2.64938">
        <ele>84</ele>
        <time>2019-03-30T14:28:26Z</time>
      </trkpt>
      <trkpt lat="48.41693" lon="-2.64948">
        <ele>80</ele>
        <time>2019-03-30T14:28:31Z</time>
      </trkpt>
      <trkpt lat="48.41691" lon="-2.64954">
        <ele>79</ele>
        <time>2019-03-30T14:28:33Z</time>
      </trkpt>
      <trkpt lat="48.41683" lon="-2.64964">
        <ele>77</ele>
        <time>2019-03-30T14:28:40Z</time>
      </trkpt>
      <trkpt lat="48.41642" lon="-2.65003">
        <ele>77</ele>
        <time>2019-03-30T14:29:04Z</time>
      </trkpt>
      <trkpt lat="48.41637" lon="-2.6501">
        <ele>76</ele>
        <time>2019-03-30T14:29:06Z</time>
      </trkpt>
      <trkpt lat="48.41619" lon="-2.6503">
        <ele>76</ele>
        <time>2019-03-30T14:29:12Z</time>
      </trkpt>
      <trkpt lat="48.41574" lon="-2.65108">
        <ele>80</ele>
        <time>2019-03-30T14:29:38Z</time>
      </trkpt>
      <trkpt lat="48.41566" lon="-2.65119">
        <ele>81</ele>
        <time>2019-03-30T14:29:43Z</time>
      </trkpt>
      <trkpt lat="48.41561" lon="-2.65131">
        <ele>82</ele>
        <time>2019-03-30T14:29:48Z</time>
      </trkpt>
      <trkpt lat="48.41553" lon="-2.6515">
        <ele>84</ele>
        <time>2019-03-30T14:30:00Z</time>
      </trkpt>
      <trkpt lat="48.41548" lon="-2.65166">
        <ele>83</ele>
        <time>2019-03-30T14:30:08Z</time>
      </trkpt>
      <trkpt lat="48.41545" lon="-2.65172">
        <ele>83</ele>
        <time>2019-03-30T14:30:11Z</time>
      </trkpt>
      <trkpt lat="48.41541" lon="-2.65176">
        <ele>82</ele>
        <time>2019-03-30T14:30:16Z</time>
      </trkpt>
      <trkpt lat="48.41534" lon="-2.65186">
        <ele>82</ele>
        <time>2019-03-30T14:30:26Z</time>
      </trkpt>
      <trkpt lat="48.41529" lon="-2.6519">
        <ele>82</ele>
        <time>2019-03-30T14:30:30Z</time>
      </trkpt>
      <trkpt lat="48.41525" lon="-2.65195">
        <ele>82</ele>
        <time>2019-03-30T14:30:33Z</time>
      </trkpt>
      <trkpt lat="48.41505" lon="-2.65218">
        <ele>85</ele>
        <time>2019-03-30T14:30:48Z</time>
      </trkpt>
      <trkpt lat="48.41497" lon="-2.65226">
        <ele>86</ele>
        <time>2019-03-30T14:30:57Z</time>
      </trkpt>
      <trkpt lat="48.41473" lon="-2.65256">
        <ele>86</ele>
        <time>2019-03-30T14:31:21Z</time>
      </trkpt>
      <trkpt lat="48.41469" lon="-2.6526">
        <ele>86</ele>
        <time>2019-03-30T14:31:24Z</time>
      </trkpt>
      <trkpt lat="48.41464" lon="-2.65265">
        <ele>86</ele>
        <time>2019-03-30T14:31:28Z</time>
      </trkpt>
      <trkpt lat="48.41459" lon="-2.65268">
        <ele>85</ele>
        <time>2019-03-30T14:31:32Z</time>
      </trkpt>
      <trkpt lat="48.41453" lon="-2.65268">
        <ele>85</ele>
        <time>2019-03-30T14:31:36Z</time>
      </trkpt>
      <trkpt lat="48.41448" lon="-2.65265">
        <ele>85</ele>
        <time>2019-03-30T14:31:45Z</time>
      </trkpt>
      <trkpt lat="48.41437" lon="-2.65269">
        <ele>84</ele>
        <time>2019-03-30T14:31:50Z</time>
      </trkpt>
      <trkpt lat="48.41421" lon="-2.6527">
        <ele>81</ele>
        <time>2019-03-30T14:32:01Z</time>
      </trkpt>
      <trkpt lat="48.41416" lon="-2.65268">
        <ele>81</ele>
        <time>2019-03-30T14:32:06Z</time>
      </trkpt>
      <trkpt lat="48.41411" lon="-2.6527">
        <ele>80</ele>
        <time>2019-03-30T14:32:09Z</time>
      </trkpt>
      <trkpt lat="48.41408" lon="-2.65274">
        <ele>80</ele>
        <time>2019-03-30T14:32:12Z</time>
      </trkpt>
      <trkpt lat="48.41397" lon="-2.65291">
        <ele>78</ele>
        <time>2019-03-30T14:32:24Z</time>
      </trkpt>
      <trkpt lat="48.41395" lon="-2.65297">
        <ele>77</ele>
        <time>2019-03-30T14:32:29Z</time>
      </trkpt>
      <trkpt lat="48.41394" lon="-2.65305">
        <ele>75</ele>
        <time>2019-03-30T14:32:33Z</time>
      </trkpt>
      <trkpt lat="48.41391" lon="-2.65312">
        <ele>74</ele>
        <time>2019-03-30T14:32:37Z</time>
      </trkpt>
      <trkpt lat="48.4139" lon="-2.65319">
        <ele>72</ele>
        <time>2019-03-30T14:32:42Z</time>
      </trkpt>
      <trkpt lat="48.41382" lon="-2.65329">
        <ele>72</ele>
        <time>2019-03-30T14:32:50Z</time>
      </trkpt>
      <trkpt lat="48.41379" lon="-2.65336">
        <ele>71</ele>
        <time>2019-03-30T14:33:02Z</time>
      </trkpt>
      <trkpt lat="48.41374" lon="-2.65339">
        <ele>72</ele>
        <time>2019-03-30T14:33:05Z</time>
      </trkpt>
      <trkpt lat="48.41369" lon="-2.65341">
        <ele>73</ele>
        <time>2019-03-30T14:33:10Z</time>
      </trkpt>
      <trkpt lat="48.41354" lon="-2.65337">
        <ele>75</ele>
        <time>2019-03-30T14:33:20Z</time>
      </trkpt>
      <trkpt lat="48.41345" lon="-2.65339">
        <ele>74</ele>
        <time>2019-03-30T14:33:27Z</time>
      </trkpt>
      <trkpt lat="48.4134" lon="-2.6534">
        <ele>74</ele>
        <time>2019-03-30T14:33:31Z</time>
      </trkpt>
      <trkpt lat="48.41336" lon="-2.65344">
        <ele>74</ele>
        <time>2019-03-30T14:33:34Z</time>
      </trkpt>
      <trkpt lat="48.41325" lon="-2.65349">
        <ele>75</ele>
        <time>2019-03-30T14:33:39Z</time>
      </trkpt>
      <trkpt lat="48.41316" lon="-2.6536">
        <ele>75</ele>
        <time>2019-03-30T14:33:43Z</time>
      </trkpt>
      <trkpt lat="48.41297" lon="-2.65374">
        <ele>75</ele>
        <time>2019-03-30T14:33:48Z</time>
      </trkpt>
      <trkpt lat="48.41281" lon="-2.65385">
        <ele>76</ele>
        <time>2019-03-30T14:33:52Z</time>
      </trkpt>
      <trkpt lat="48.41262" lon="-2.654">
        <ele>76</ele>
        <time>2019-03-30T14:33:57Z</time>
      </trkpt>
      <trkpt lat="48.41245" lon="-2.65407">
        <ele>75</ele>
        <time>2019-03-30T14:34:00Z</time>
      </trkpt>
      <trkpt lat="48.41226" lon="-2.65423">
        <ele>75</ele>
        <time>2019-03-30T14:34:04Z</time>
      </trkpt>
      <trkpt lat="48.41187" lon="-2.65454">
        <ele>72</ele>
        <time>2019-03-30T14:34:13Z</time>
      </trkpt>
      <trkpt lat="48.41171" lon="-2.65483">
        <ele>72</ele>
        <time>2019-03-30T14:34:19Z</time>
      </trkpt>
      <trkpt lat="48.41165" lon="-2.65501">
        <ele>73</ele>
        <time>2019-03-30T14:34:26Z</time>
      </trkpt>
      <trkpt lat="48.41167" lon="-2.65509">
        <ele>74</ele>
        <time>2019-03-30T14:35:06Z</time>
      </trkpt>
      <trkpt lat="48.41172" lon="-2.65513">
        <ele>76</ele>
        <time>2019-03-30T14:35:18Z</time>
      </trkpt>
      <trkpt lat="48.41188" lon="-2.65521">
        <ele>82</ele>
        <time>2019-03-30T14:35:44Z</time>
      </trkpt>
      <trkpt lat="48.41204" lon="-2.65534">
        <ele>84</ele>
        <time>2019-03-30T14:35:59Z</time>
      </trkpt>
      <trkpt lat="48.41205" lon="-2.65541">
        <ele>85</ele>
        <time>2019-03-30T14:36:03Z</time>
      </trkpt>
      <trkpt lat="48.41203" lon="-2.65556">
        <ele>87</ele>
        <time>2019-03-30T14:36:13Z</time>
      </trkpt>
      <trkpt lat="48.41202" lon="-2.65564">
        <ele>88</ele>
        <time>2019-03-30T14:36:19Z</time>
      </trkpt>
      <trkpt lat="48.41202" lon="-2.65571">
        <ele>89</ele>
        <time>2019-03-30T14:36:24Z</time>
      </trkpt>
      <trkpt lat="48.41203" lon="-2.65578">
        <ele>90</ele>
        <time>2019-03-30T14:36:29Z</time>
      </trkpt>
      <trkpt lat="48.41204" lon="-2.65585">
        <ele>92</ele>
        <time>2019-03-30T14:36:56Z</time>
      </trkpt>
      <trkpt lat="48.41201" lon="-2.65595">
        <ele>92</ele>
        <time>2019-03-30T14:37:11Z</time>
      </trkpt>
      <trkpt lat="48.412" lon="-2.65601">
        <ele>94</ele>
        <time>2019-03-30T14:37:15Z</time>
      </trkpt>
      <trkpt lat="48.41219" lon="-2.65626">
        <ele>94</ele>
        <time>2019-03-30T14:37:31Z</time>
      </trkpt>
      <trkpt lat="48.41221" lon="-2.65635">
        <ele>94</ele>
        <time>2019-03-30T14:37:35Z</time>
      </trkpt>
      <trkpt lat="48.41222" lon="-2.65644">
        <ele>93</ele>
        <time>2019-03-30T14:37:39Z</time>
      </trkpt>
      <trkpt lat="48.41225" lon="-2.6565">
        <ele>93</ele>
        <time>2019-03-30T14:37:46Z</time>
      </trkpt>
      <trkpt lat="48.41228" lon="-2.65658">
        <ele>93</ele>
        <time>2019-03-30T14:37:50Z</time>
      </trkpt>
      <trkpt lat="48.4123" lon="-2.65665">
        <ele>93</ele>
        <time>2019-03-30T14:37:54Z</time>
      </trkpt>
      <trkpt lat="48.41231" lon="-2.65672">
        <ele>94</ele>
        <time>2019-03-30T14:37:57Z</time>
      </trkpt>
      <trkpt lat="48.41232" lon="-2.6568">
        <ele>94</ele>
        <time>2019-03-30T14:38:00Z</time>
      </trkpt>
      <trkpt lat="48.41226" lon="-2.65693">
        <ele>95</ele>
        <time>2019-03-30T14:38:09Z</time>
      </trkpt>
      <trkpt lat="48.41225" lon="-2.657">
        <ele>94</ele>
        <time>2019-03-30T14:38:12Z</time>
      </trkpt>
      <trkpt lat="48.41234" lon="-2.65732">
        <ele>91</ele>
        <time>2019-03-30T14:38:24Z</time>
      </trkpt>
      <trkpt lat="48.41233" lon="-2.6574">
        <ele>91</ele>
        <time>2019-03-30T14:38:30Z</time>
      </trkpt>
      <trkpt lat="48.41238" lon="-2.65753">
        <ele>93</ele>
        <time>2019-03-30T14:38:41Z</time>
      </trkpt>
      <trkpt lat="48.41239" lon="-2.65761">
        <ele>94</ele>
        <time>2019-03-30T14:38:44Z</time>
      </trkpt>
      <trkpt lat="48.41237" lon="-2.65769">
        <ele>94</ele>
        <time>2019-03-30T14:38:49Z</time>
      </trkpt>
      <trkpt lat="48.4123" lon="-2.65779">
        <ele>94</ele>
        <time>2019-03-30T14:38:57Z</time>
      </trkpt>
      <trkpt lat="48.41223" lon="-2.65799">
        <ele>96</ele>
        <time>2019-03-30T14:39:07Z</time>
      </trkpt>
      <trkpt lat="48.41222" lon="-2.65807">
        <ele>97</ele>
        <time>2019-03-30T14:39:13Z</time>
      </trkpt>
      <trkpt lat="48.41222" lon="-2.65823">
        <ele>96</ele>
        <time>2019-03-30T14:39:19Z</time>
      </trkpt>
      <trkpt lat="48.41216" lon="-2.65845">
        <ele>94</ele>
        <time>2019-03-30T14:39:31Z</time>
      </trkpt>
      <trkpt lat="48.41206" lon="-2.65859">
        <ele>92</ele>
        <time>2019-03-30T14:39:42Z</time>
      </trkpt>
      <trkpt lat="48.41206" lon="-2.65852">
        <ele>92</ele>
        <time>2019-03-30T14:40:12Z</time>
      </trkpt>
      <trkpt lat="48.4121" lon="-2.65839">
        <ele>93</ele>
        <time>2019-03-30T14:40:19Z</time>
      </trkpt>
      <trkpt lat="48.41218" lon="-2.65803">
        <ele>96</ele>
        <time>2019-03-30T14:40:35Z</time>
      </trkpt>
      <trkpt lat="48.41224" lon="-2.65791">
        <ele>96</ele>
        <time>2019-03-30T14:40:42Z</time>
      </trkpt>
      <trkpt lat="48.4123" lon="-2.65776">
        <ele>96</ele>
        <time>2019-03-30T14:40:50Z</time>
      </trkpt>
      <trkpt lat="48.41235" lon="-2.65771">
        <ele>97</ele>
        <time>2019-03-30T14:40:54Z</time>
      </trkpt>
      <trkpt lat="48.41272" lon="-2.65775">
        <ele>100</ele>
        <time>2019-03-30T14:41:03Z</time>
      </trkpt>
      <trkpt lat="48.4133" lon="-2.65763">
        <ele>99</ele>
        <time>2019-03-30T14:41:15Z</time>
      </trkpt>
      <trkpt lat="48.41335" lon="-2.65767">
        <ele>98</ele>
        <time>2019-03-30T14:41:26Z</time>
      </trkpt>
      <trkpt lat="48.41356" lon="-2.65762">
        <ele>97</ele>
        <time>2019-03-30T14:41:32Z</time>
      </trkpt>
      <trkpt lat="48.414" lon="-2.6577">
        <ele>97</ele>
        <time>2019-03-30T14:41:41Z</time>
      </trkpt>
      <trkpt lat="48.41415" lon="-2.65766">
        <ele>97</ele>
        <time>2019-03-30T14:41:44Z</time>
      </trkpt>
      <trkpt lat="48.41499" lon="-2.65713">
        <ele>96</ele>
        <time>2019-03-30T14:42:05Z</time>
      </trkpt>
      <trkpt lat="48.41512" lon="-2.65695">
        <ele>95</ele>
        <time>2019-03-30T14:42:12Z</time>
      </trkpt>
      <trkpt lat="48.41519" lon="-2.65668">
        <ele>96</ele>
        <time>2019-03-30T14:42:25Z</time>
      </trkpt>
      <trkpt lat="48.41527" lon="-2.65655">
        <ele>96</ele>
        <time>2019-03-30T14:42:33Z</time>
      </trkpt>
      <trkpt lat="48.41538" lon="-2.65652">
        <ele>97</ele>
        <time>2019-03-30T14:42:39Z</time>
      </trkpt>
      <trkpt lat="48.41553" lon="-2.65654">
        <ele>98</ele>
        <time>2019-03-30T14:42:48Z</time>
      </trkpt>
      <trkpt lat="48.41577" lon="-2.65666">
        <ele>98</ele>
        <time>2019-03-30T14:43:05Z</time>
      </trkpt>
      <trkpt lat="48.41581" lon="-2.65669">
        <ele>98</ele>
        <time>2019-03-30T14:43:09Z</time>
      </trkpt>
      <trkpt lat="48.41584" lon="-2.65676">
        <ele>98</ele>
        <time>2019-03-30T14:43:13Z</time>
      </trkpt>
      <trkpt lat="48.41589" lon="-2.6568">
        <ele>98</ele>
        <time>2019-03-30T14:43:17Z</time>
      </trkpt>
      <trkpt lat="48.41615" lon="-2.65703">
        <ele>96</ele>
        <time>2019-03-30T14:43:38Z</time>
      </trkpt>
      <trkpt lat="48.4162" lon="-2.65706">
        <ele>96</ele>
        <time>2019-03-30T14:43:41Z</time>
      </trkpt>
      <trkpt lat="48.4164" lon="-2.65722">
        <ele>95</ele>
        <time>2019-03-30T14:43:56Z</time>
      </trkpt>
      <trkpt lat="48.41676" lon="-2.6574">
        <ele>90</ele>
        <time>2019-03-30T14:44:23Z</time>
      </trkpt>
      <trkpt lat="48.41723" lon="-2.65748">
        <ele>95</ele>
        <time>2019-03-30T14:44:55Z</time>
      </trkpt>
      <trkpt lat="48.41743" lon="-2.65752">
        <ele>96</ele>
        <time>2019-03-30T14:45:10Z</time>
      </trkpt>
      <trkpt lat="48.41775" lon="-2.65762">
        <ele>98</ele>
        <time>2019-03-30T14:45:32Z</time>
      </trkpt>
      <trkpt lat="48.4178" lon="-2.65764">
        <ele>98</ele>
        <time>2019-03-30T14:45:36Z</time>
      </trkpt>
      <trkpt lat="48.418" lon="-2.65771">
        <ele>99</ele>
        <time>2019-03-30T14:45:49Z</time>
      </trkpt>
      <trkpt lat="48.41806" lon="-2.65772">
        <ele>98</ele>
        <time>2019-03-30T14:46:04Z</time>
      </trkpt>
      <trkpt lat="48.4181" lon="-2.65773">
        <ele>99</ele>
        <time>2019-03-30T14:46:07Z</time>
      </trkpt>
      <trkpt lat="48.41816" lon="-2.65775">
        <ele>98</ele>
        <time>2019-03-30T14:46:11Z</time>
      </trkpt>
      <trkpt lat="48.41832" lon="-2.65778">
        <ele>94</ele>
        <time>2019-03-30T14:46:24Z</time>
      </trkpt>
      <trkpt lat="48.41836" lon="-2.6578">
        <ele>95</ele>
        <time>2019-03-30T14:46:27Z</time>
      </trkpt>
      <trkpt lat="48.41856" lon="-2.65785">
        <ele>96</ele>
        <time>2019-03-30T14:46:41Z</time>
      </trkpt>
      <trkpt lat="48.41862" lon="-2.65785">
        <ele>96</ele>
        <time>2019-03-30T14:46:45Z</time>
      </trkpt>
      <trkpt lat="48.41867" lon="-2.65785">
        <ele>96</ele>
        <time>2019-03-30T14:46:48Z</time>
      </trkpt>
      <trkpt lat="48.41872" lon="-2.65789">
        <ele>97</ele>
        <time>2019-03-30T14:46:52Z</time>
      </trkpt>
      <trkpt lat="48.41874" lon="-2.65795">
        <ele>97</ele>
        <time>2019-03-30T14:46:57Z</time>
      </trkpt>
      <trkpt lat="48.41873" lon="-2.65809">
        <ele>95</ele>
        <time>2019-03-30T14:47:04Z</time>
      </trkpt>
      <trkpt lat="48.41877" lon="-2.65826">
        <ele>93</ele>
        <time>2019-03-30T14:47:12Z</time>
      </trkpt>
      <trkpt lat="48.41877" lon="-2.65834">
        <ele>94</ele>
        <time>2019-03-30T14:47:15Z</time>
      </trkpt>
      <trkpt lat="48.41878" lon="-2.65851">
        <ele>94</ele>
        <time>2019-03-30T14:47:24Z</time>
      </trkpt>
      <trkpt lat="48.41883" lon="-2.65871">
        <ele>96</ele>
        <time>2019-03-30T14:47:34Z</time>
      </trkpt>
      <trkpt lat="48.41885" lon="-2.6588">
        <ele>96</ele>
        <time>2019-03-30T14:47:38Z</time>
      </trkpt>
      <trkpt lat="48.4188" lon="-2.65882">
        <ele>96</ele>
        <time>2019-03-30T14:47:42Z</time>
      </trkpt>
      <trkpt lat="48.41877" lon="-2.65889">
        <ele>97</ele>
        <time>2019-03-30T14:47:48Z</time>
      </trkpt>
      <trkpt lat="48.41867" lon="-2.65891">
        <ele>97</ele>
        <time>2019-03-30T14:47:56Z</time>
      </trkpt>
      <trkpt lat="48.41862" lon="-2.65893">
        <ele>97</ele>
        <time>2019-03-30T14:48:00Z</time>
      </trkpt>
      <trkpt lat="48.41858" lon="-2.65894">
        <ele>97</ele>
        <time>2019-03-30T14:48:03Z</time>
      </trkpt>
      <trkpt lat="48.41853" lon="-2.65897">
        <ele>97</ele>
        <time>2019-03-30T14:48:08Z</time>
      </trkpt>
      <trkpt lat="48.4185" lon="-2.65902">
        <ele>97</ele>
        <time>2019-03-30T14:48:12Z</time>
      </trkpt>
      <trkpt lat="48.4185" lon="-2.6591">
        <ele>96</ele>
        <time>2019-03-30T14:48:15Z</time>
      </trkpt>
      <trkpt lat="48.4185" lon="-2.65917">
        <ele>95</ele>
        <time>2019-03-30T14:48:19Z</time>
      </trkpt>
      <trkpt lat="48.41848" lon="-2.65924">
        <ele>95</ele>
        <time>2019-03-30T14:48:25Z</time>
      </trkpt>
      <trkpt lat="48.41846" lon="-2.6593">
        <ele>95</ele>
        <time>2019-03-30T14:48:29Z</time>
      </trkpt>
      <trkpt lat="48.41844" lon="-2.65955">
        <ele>97</ele>
        <time>2019-03-30T14:48:39Z</time>
      </trkpt>
      <trkpt lat="48.4184" lon="-2.65962">
        <ele>97</ele>
        <time>2019-03-30T14:48:43Z</time>
      </trkpt>
      <trkpt lat="48.41836" lon="-2.65967">
        <ele>97</ele>
        <time>2019-03-30T14:48:47Z</time>
      </trkpt>
      <trkpt lat="48.41809" lon="-2.65967">
        <ele>95</ele>
        <time>2019-03-30T14:49:07Z</time>
      </trkpt>
      <trkpt lat="48.41805" lon="-2.65968">
        <ele>95</ele>
        <time>2019-03-30T14:49:11Z</time>
      </trkpt>
      <trkpt lat="48.41801" lon="-2.65974">
        <ele>95</ele>
        <time>2019-03-30T14:49:15Z</time>
      </trkpt>
      <trkpt lat="48.41781" lon="-2.66037">
        <ele>95</ele>
        <time>2019-03-30T14:49:47Z</time>
      </trkpt>
      <trkpt lat="48.41764" lon="-2.66101">
        <ele>101</ele>
        <time>2019-03-30T14:50:17Z</time>
      </trkpt>
      <trkpt lat="48.41761" lon="-2.66108">
        <ele>101</ele>
        <time>2019-03-30T14:50:21Z</time>
      </trkpt>
      <trkpt lat="48.41744" lon="-2.66161">
        <ele>98</ele>
        <time>2019-03-30T14:50:51Z</time>
      </trkpt>
      <trkpt lat="48.4174" lon="-2.66166">
        <ele>98</ele>
        <time>2019-03-30T14:51:00Z</time>
      </trkpt>
      <trkpt lat="48.41671" lon="-2.66207">
        <ele>99</ele>
        <time>2019-03-30T14:51:23Z</time>
      </trkpt>
      <trkpt lat="48.41633" lon="-2.66243">
        <ele>100</ele>
        <time>2019-03-30T14:51:35Z</time>
      </trkpt>
      <trkpt lat="48.41623" lon="-2.66263">
        <ele>100</ele>
        <time>2019-03-30T14:51:39Z</time>
      </trkpt>
      <trkpt lat="48.41616" lon="-2.66287">
        <ele>100</ele>
        <time>2019-03-30T14:51:43Z</time>
      </trkpt>
      <trkpt lat="48.41606" lon="-2.66355">
        <ele>97</ele>
        <time>2019-03-30T14:51:55Z</time>
      </trkpt>
      <trkpt lat="48.41601" lon="-2.66369">
        <ele>97</ele>
        <time>2019-03-30T14:51:59Z</time>
      </trkpt>
      <trkpt lat="48.41594" lon="-2.66383">
        <ele>97</ele>
        <time>2019-03-30T14:52:03Z</time>
      </trkpt>
      <trkpt lat="48.41571" lon="-2.66451">
        <ele>100</ele>
        <time>2019-03-30T14:52:17Z</time>
      </trkpt>
      <trkpt lat="48.41568" lon="-2.66459">
        <ele>101</ele>
        <time>2019-03-30T14:52:20Z</time>
      </trkpt>
      <trkpt lat="48.41556" lon="-2.66472">
        <ele>104</ele>
        <time>2019-03-30T14:52:29Z</time>
      </trkpt>
      <trkpt lat="48.41548" lon="-2.66483">
        <ele>106</ele>
        <time>2019-03-30T14:52:40Z</time>
      </trkpt>
      <trkpt lat="48.41549" lon="-2.66491">
        <ele>107</ele>
        <time>2019-03-30T14:52:47Z</time>
      </trkpt>
      <trkpt lat="48.41556" lon="-2.66501">
        <ele>110</ele>
        <time>2019-03-30T14:52:54Z</time>
      </trkpt>
      <trkpt lat="48.41562" lon="-2.66501">
        <ele>110</ele>
        <time>2019-03-30T14:52:58Z</time>
      </trkpt>
      <trkpt lat="48.41573" lon="-2.66514">
        <ele>110</ele>
        <time>2019-03-30T14:53:03Z</time>
      </trkpt>
      <trkpt lat="48.41579" lon="-2.66518">
        <ele>109</ele>
        <time>2019-03-30T14:53:05Z</time>
      </trkpt>
      <trkpt lat="48.41599" lon="-2.66513">
        <ele>109</ele>
        <time>2019-03-30T14:53:11Z</time>
      </trkpt>
      <trkpt lat="48.41603" lon="-2.66508">
        <ele>103</ele>
        <time>2019-03-30T14:53:38Z</time>
      </trkpt>
      <trkpt lat="48.41623" lon="-2.66508">
        <ele>102</ele>
        <time>2019-03-30T14:53:44Z</time>
      </trkpt>
      <trkpt lat="48.41637" lon="-2.66508">
        <ele>103</ele>
        <time>2019-03-30T14:53:48Z</time>
      </trkpt>
      <trkpt lat="48.41689" lon="-2.66485">
        <ele>102</ele>
        <time>2019-03-30T14:54:04Z</time>
      </trkpt>
      <trkpt lat="48.41705" lon="-2.66493">
        <ele>102</ele>
        <time>2019-03-30T14:54:10Z</time>
      </trkpt>
      <trkpt lat="48.41725" lon="-2.66496">
        <ele>102</ele>
        <time>2019-03-30T14:54:16Z</time>
      </trkpt>
      <trkpt lat="48.41732" lon="-2.66501">
        <ele>102</ele>
        <time>2019-03-30T14:54:18Z</time>
      </trkpt>
      <trkpt lat="48.41747" lon="-2.66505">
        <ele>101</ele>
        <time>2019-03-30T14:54:22Z</time>
      </trkpt>
      <trkpt lat="48.41794" lon="-2.66504">
        <ele>102</ele>
        <time>2019-03-30T14:54:36Z</time>
      </trkpt>
      <trkpt lat="48.41815" lon="-2.6651">
        <ele>103</ele>
        <time>2019-03-30T14:54:47Z</time>
      </trkpt>
      <trkpt lat="48.4182" lon="-2.66512">
        <ele>103</ele>
        <time>2019-03-30T14:54:51Z</time>
      </trkpt>
      <trkpt lat="48.41824" lon="-2.66514">
        <ele>103</ele>
        <time>2019-03-30T14:54:54Z</time>
      </trkpt>
      <trkpt lat="48.41858" lon="-2.66529">
        <ele>104</ele>
        <time>2019-03-30T14:55:15Z</time>
      </trkpt>
      <trkpt lat="48.41903" lon="-2.66544">
        <ele>104</ele>
        <time>2019-03-30T14:55:34Z</time>
      </trkpt>
      <trkpt lat="48.41907" lon="-2.66549">
        <ele>103</ele>
        <time>2019-03-30T14:56:48Z</time>
      </trkpt>
      <trkpt lat="48.41912" lon="-2.66548">
        <ele>99</ele>
        <time>2019-03-30T14:57:01Z</time>
      </trkpt>
      <trkpt lat="48.41911" lon="-2.66555">
        <ele>97</ele>
        <time>2019-03-30T14:58:52Z</time>
      </trkpt>
      <trkpt lat="48.41909" lon="-2.66563">
        <ele>97</ele>
        <time>2019-03-30T14:58:56Z</time>
      </trkpt>
      <trkpt lat="48.4188" lon="-2.66616">
        <ele>95</ele>
        <time>2019-03-30T14:59:13Z</time>
      </trkpt>
      <trkpt lat="48.41875" lon="-2.66622">
        <ele>96</ele>
        <time>2019-03-30T14:59:16Z</time>
      </trkpt>
      <trkpt lat="48.4186" lon="-2.66644">
        <ele>96</ele>
        <time>2019-03-30T14:59:21Z</time>
      </trkpt>
      <trkpt lat="48.41808" lon="-2.66699">
        <ele>94</ele>
        <time>2019-03-30T14:59:33Z</time>
      </trkpt>
      <trkpt lat="48.41764" lon="-2.66779">
        <ele>94</ele>
        <time>2019-03-30T14:59:47Z</time>
      </trkpt>
      <trkpt lat="48.41751" lon="-2.66793">
        <ele>95</ele>
        <time>2019-03-30T14:59:50Z</time>
      </trkpt>
      <trkpt lat="48.41747" lon="-2.66796">
        <ele>95</ele>
        <time>2019-03-30T14:59:51Z</time>
      </trkpt>
      <trkpt lat="48.41714" lon="-2.66818">
        <ele>96</ele>
        <time>2019-03-30T15:00:00Z</time>
      </trkpt>
      <trkpt lat="48.41681" lon="-2.66847">
        <ele>97</ele>
        <time>2019-03-30T15:00:07Z</time>
      </trkpt>
      <trkpt lat="48.41665" lon="-2.66867">
        <ele>98</ele>
        <time>2019-03-30T15:00:12Z</time>
      </trkpt>
      <trkpt lat="48.41651" lon="-2.66895">
        <ele>101</ele>
        <time>2019-03-30T15:00:20Z</time>
      </trkpt>
      <trkpt lat="48.41646" lon="-2.66902">
        <ele>102</ele>
        <time>2019-03-30T15:00:22Z</time>
      </trkpt>
      <trkpt lat="48.41641" lon="-2.66908">
        <ele>104</ele>
        <time>2019-03-30T15:00:24Z</time>
      </trkpt>
      <trkpt lat="48.41628" lon="-2.66909">
        <ele>106</ele>
        <time>2019-03-30T15:00:28Z</time>
      </trkpt>
      <trkpt lat="48.41609" lon="-2.66907">
        <ele>109</ele>
        <time>2019-03-30T15:00:34Z</time>
      </trkpt>
      <trkpt lat="48.41593" lon="-2.66899">
        <ele>111</ele>
        <time>2019-03-30T15:00:41Z</time>
      </trkpt>
      <trkpt lat="48.41588" lon="-2.66896">
        <ele>112</ele>
        <time>2019-03-30T15:00:55Z</time>
      </trkpt>
      <trkpt lat="48.41584" lon="-2.66899">
        <ele>114</ele>
        <time>2019-03-30T15:01:00Z</time>
      </trkpt>
      <trkpt lat="48.4158" lon="-2.66901">
        <ele>117</ele>
        <time>2019-03-30T15:02:04Z</time>
      </trkpt>
      <trkpt lat="48.41573" lon="-2.66963">
        <ele>113</ele>
        <time>2019-03-30T15:02:34Z</time>
      </trkpt>
      <trkpt lat="48.41573" lon="-2.66978">
        <ele>114</ele>
        <time>2019-03-30T15:02:41Z</time>
      </trkpt>
      <trkpt lat="48.41576" lon="-2.67002">
        <ele>114</ele>
        <time>2019-03-30T15:02:53Z</time>
      </trkpt>
      <trkpt lat="48.41577" lon="-2.6701">
        <ele>114</ele>
        <time>2019-03-30T15:02:57Z</time>
      </trkpt>
      <trkpt lat="48.4159" lon="-2.67078">
        <ele>115</ele>
        <time>2019-03-30T15:03:21Z</time>
      </trkpt>
      <trkpt lat="48.41588" lon="-2.67096">
        <ele>116</ele>
        <time>2019-03-30T15:03:25Z</time>
      </trkpt>
      <trkpt lat="48.41578" lon="-2.67145">
        <ele>117</ele>
        <time>2019-03-30T15:03:41Z</time>
      </trkpt>
      <trkpt lat="48.41573" lon="-2.67161">
        <ele>118</ele>
        <time>2019-03-30T15:03:49Z</time>
      </trkpt>
      <trkpt lat="48.4156" lon="-2.67183">
        <ele>117</ele>
        <time>2019-03-30T15:04:03Z</time>
      </trkpt>
      <trkpt lat="48.41553" lon="-2.67193">
        <ele>116</ele>
        <time>2019-03-30T15:04:11Z</time>
      </trkpt>
      <trkpt lat="48.41537" lon="-2.67211">
        <ele>117</ele>
        <time>2019-03-30T15:04:25Z</time>
      </trkpt>
      <trkpt lat="48.41534" lon="-2.67216">
        <ele>118</ele>
        <time>2019-03-30T15:04:29Z</time>
      </trkpt>
      <trkpt lat="48.41529" lon="-2.67218">
        <ele>118</ele>
        <time>2019-03-30T15:04:34Z</time>
      </trkpt>
      <trkpt lat="48.41524" lon="-2.6722">
        <ele>116</ele>
        <time>2019-03-30T15:04:39Z</time>
      </trkpt>
      <trkpt lat="48.41519" lon="-2.67218">
        <ele>116</ele>
        <time>2019-03-30T15:04:43Z</time>
      </trkpt>
      <trkpt lat="48.4144" lon="-2.67247">
        <ele>117</ele>
        <time>2019-03-30T15:05:14Z</time>
      </trkpt>
      <trkpt lat="48.41406" lon="-2.67245">
        <ele>117</ele>
        <time>2019-03-30T15:05:26Z</time>
      </trkpt>
      <trkpt lat="48.41384" lon="-2.67239">
        <ele>117</ele>
        <time>2019-03-30T15:05:34Z</time>
      </trkpt>
      <trkpt lat="48.41379" lon="-2.67241">
        <ele>117</ele>
        <time>2019-03-30T15:05:39Z</time>
      </trkpt>
      <trkpt lat="48.41374" lon="-2.67239">
        <ele>118</ele>
        <time>2019-03-30T15:05:43Z</time>
      </trkpt>
      <trkpt lat="48.41351" lon="-2.67229">
        <ele>118</ele>
        <time>2019-03-30T15:05:52Z</time>
      </trkpt>
      <trkpt lat="48.4126" lon="-2.67236">
        <ele>122</ele>
        <time>2019-03-30T15:06:20Z</time>
      </trkpt>
      <trkpt lat="48.412" lon="-2.67217">
        <ele>125</ele>
        <time>2019-03-30T15:06:51Z</time>
      </trkpt>
      <trkpt lat="48.41195" lon="-2.67215">
        <ele>124</ele>
        <time>2019-03-30T15:06:54Z</time>
      </trkpt>
      <trkpt lat="48.4119" lon="-2.67216">
        <ele>123</ele>
        <time>2019-03-30T15:06:58Z</time>
      </trkpt>
      <trkpt lat="48.41185" lon="-2.67219">
        <ele>123</ele>
        <time>2019-03-30T15:07:02Z</time>
      </trkpt>
      <trkpt lat="48.41181" lon="-2.67222">
        <ele>122</ele>
        <time>2019-03-30T15:07:05Z</time>
      </trkpt>
      <trkpt lat="48.4118" lon="-2.6723">
        <ele>124</ele>
        <time>2019-03-30T15:07:09Z</time>
      </trkpt>
      <trkpt lat="48.41182" lon="-2.67252">
        <ele>126</ele>
        <time>2019-03-30T15:07:20Z</time>
      </trkpt>
      <trkpt lat="48.41184" lon="-2.67259">
        <ele>127</ele>
        <time>2019-03-30T15:07:24Z</time>
      </trkpt>
      <trkpt lat="48.41184" lon="-2.67268">
        <ele>127</ele>
        <time>2019-03-30T15:07:29Z</time>
      </trkpt>
      <trkpt lat="48.41182" lon="-2.67321">
        <ele>131</ele>
        <time>2019-03-30T15:07:50Z</time>
      </trkpt>
      <trkpt lat="48.4118" lon="-2.67329">
        <ele>132</ele>
        <time>2019-03-30T15:07:53Z</time>
      </trkpt>
      <trkpt lat="48.41176" lon="-2.67397">
        <ele>138</ele>
        <time>2019-03-30T15:08:24Z</time>
      </trkpt>
      <trkpt lat="48.41178" lon="-2.67445">
        <ele>139</ele>
        <time>2019-03-30T15:08:46Z</time>
      </trkpt>
      <trkpt lat="48.4118" lon="-2.67487">
        <ele>141</ele>
        <time>2019-03-30T15:09:06Z</time>
      </trkpt>
      <trkpt lat="48.41193" lon="-2.6753">
        <ele>140</ele>
        <time>2019-03-30T15:09:30Z</time>
      </trkpt>
      <trkpt lat="48.41202" lon="-2.67547">
        <ele>139</ele>
        <time>2019-03-30T15:09:40Z</time>
      </trkpt>
      <trkpt lat="48.41206" lon="-2.67552">
        <ele>138</ele>
        <time>2019-03-30T15:09:53Z</time>
      </trkpt>
      <trkpt lat="48.41211" lon="-2.67555">
        <ele>137</ele>
        <time>2019-03-30T15:09:58Z</time>
      </trkpt>
      <trkpt lat="48.41219" lon="-2.67567">
        <ele>136</ele>
        <time>2019-03-30T15:10:07Z</time>
      </trkpt>
      <trkpt lat="48.41227" lon="-2.67596">
        <ele>136</ele>
        <time>2019-03-30T15:10:21Z</time>
      </trkpt>
      <trkpt lat="48.41228" lon="-2.6761">
        <ele>136</ele>
        <time>2019-03-30T15:10:27Z</time>
      </trkpt>
      <trkpt lat="48.41216" lon="-2.67659">
        <ele>134</ele>
        <time>2019-03-30T15:10:51Z</time>
      </trkpt>
      <trkpt lat="48.41212" lon="-2.67674">
        <ele>134</ele>
        <time>2019-03-30T15:10:58Z</time>
      </trkpt>
      <trkpt lat="48.41211" lon="-2.6769">
        <ele>135</ele>
        <time>2019-03-30T15:11:06Z</time>
      </trkpt>
      <trkpt lat="48.41212" lon="-2.67698">
        <ele>135</ele>
        <time>2019-03-30T15:11:09Z</time>
      </trkpt>
      <trkpt lat="48.41212" lon="-2.67714">
        <ele>135</ele>
        <time>2019-03-30T15:11:16Z</time>
      </trkpt>
      <trkpt lat="48.4122" lon="-2.67772">
        <ele>134</ele>
        <time>2019-03-30T15:11:49Z</time>
      </trkpt>
      <trkpt lat="48.41221" lon="-2.67779">
        <ele>135</ele>
        <time>2019-03-30T15:11:54Z</time>
      </trkpt>
      <trkpt lat="48.41221" lon="-2.67835">
        <ele>137</ele>
        <time>2019-03-30T15:12:24Z</time>
      </trkpt>
      <trkpt lat="48.41216" lon="-2.67907">
        <ele>139</ele>
        <time>2019-03-30T15:12:57Z</time>
      </trkpt>
      <trkpt lat="48.41213" lon="-2.67913">
        <ele>138</ele>
        <time>2019-03-30T15:13:00Z</time>
      </trkpt>
      <trkpt lat="48.41212" lon="-2.6792">
        <ele>138</ele>
        <time>2019-03-30T15:13:03Z</time>
      </trkpt>
      <trkpt lat="48.41212" lon="-2.67927">
        <ele>138</ele>
        <time>2019-03-30T15:13:06Z</time>
      </trkpt>
      <trkpt lat="48.41212" lon="-2.67936">
        <ele>138</ele>
        <time>2019-03-30T15:13:10Z</time>
      </trkpt>
      <trkpt lat="48.41212" lon="-2.67958">
        <ele>141</ele>
        <time>2019-03-30T15:13:21Z</time>
      </trkpt>
      <trkpt lat="48.41212" lon="-2.67965">
        <ele>141</ele>
        <time>2019-03-30T15:13:25Z</time>
      </trkpt>
      <trkpt lat="48.4121" lon="-2.67971">
        <ele>141</ele>
        <time>2019-03-30T15:13:30Z</time>
      </trkpt>
      <trkpt lat="48.412" lon="-2.68001">
        <ele>140</ele>
        <time>2019-03-30T15:13:43Z</time>
      </trkpt>
      <trkpt lat="48.41199" lon="-2.68009">
        <ele>140</ele>
        <time>2019-03-30T15:13:45Z</time>
      </trkpt>
      <trkpt lat="48.41201" lon="-2.68042">
        <ele>140</ele>
        <time>2019-03-30T15:13:51Z</time>
      </trkpt>
      <trkpt lat="48.41205" lon="-2.68063">
        <ele>140</ele>
        <time>2019-03-30T15:13:55Z</time>
      </trkpt>
      <trkpt lat="48.41205" lon="-2.68074">
        <ele>140</ele>
        <time>2019-03-30T15:13:57Z</time>
      </trkpt>
      <trkpt lat="48.41203" lon="-2.68085">
        <ele>140</ele>
        <time>2019-03-30T15:13:59Z</time>
      </trkpt>
      <trkpt lat="48.41149" lon="-2.68154">
        <ele>138</ele>
        <time>2019-03-30T15:14:16Z</time>
      </trkpt>
      <trkpt lat="48.41143" lon="-2.68159">
        <ele>137</ele>
        <time>2019-03-30T15:14:18Z</time>
      </trkpt>
      <trkpt lat="48.41137" lon="-2.68161">
        <ele>137</ele>
        <time>2019-03-30T15:14:20Z</time>
      </trkpt>
      <trkpt lat="48.41067" lon="-2.68148">
        <ele>135</ele>
        <time>2019-03-30T15:14:36Z</time>
      </trkpt>
      <trkpt lat="48.41027" lon="-2.68123">
        <ele>134</ele>
        <time>2019-03-30T15:14:45Z</time>
      </trkpt>
      <trkpt lat="48.41002" lon="-2.68097">
        <ele>136</ele>
        <time>2019-03-30T15:14:53Z</time>
      </trkpt>
      <trkpt lat="48.40904" lon="-2.68074">
        <ele>133</ele>
        <time>2019-03-30T15:15:24Z</time>
      </trkpt>
      <trkpt lat="48.40874" lon="-2.68065">
        <ele>133</ele>
        <time>2019-03-30T15:15:46Z</time>
      </trkpt>
      <trkpt lat="48.40867" lon="-2.68055">
        <ele>133</ele>
        <time>2019-03-30T15:15:53Z</time>
      </trkpt>
      <trkpt lat="48.40863" lon="-2.68049">
        <ele>134</ele>
        <time>2019-03-30T15:15:57Z</time>
      </trkpt>
      <trkpt lat="48.40861" lon="-2.68036">
        <ele>134</ele>
        <time>2019-03-30T15:16:03Z</time>
      </trkpt>
      <trkpt lat="48.40857" lon="-2.68029">
        <ele>134</ele>
        <time>2019-03-30T15:16:07Z</time>
      </trkpt>
      <trkpt lat="48.40853" lon="-2.68023">
        <ele>134</ele>
        <time>2019-03-30T15:16:11Z</time>
      </trkpt>
      <trkpt lat="48.40848" lon="-2.6802">
        <ele>134</ele>
        <time>2019-03-30T15:16:14Z</time>
      </trkpt>
      <trkpt lat="48.40821" lon="-2.68015">
        <ele>137</ele>
        <time>2019-03-30T15:16:30Z</time>
      </trkpt>
      <trkpt lat="48.40794" lon="-2.68019">
        <ele>136</ele>
        <time>2019-03-30T15:16:50Z</time>
      </trkpt>
      <trkpt lat="48.40789" lon="-2.68019">
        <ele>136</ele>
        <time>2019-03-30T15:16:54Z</time>
      </trkpt>
      <trkpt lat="48.40784" lon="-2.68018">
        <ele>137</ele>
        <time>2019-03-30T15:16:58Z</time>
      </trkpt>
      <trkpt lat="48.40779" lon="-2.68015">
        <ele>138</ele>
        <time>2019-03-30T15:17:03Z</time>
      </trkpt>
      <trkpt lat="48.40769" lon="-2.6801">
        <ele>138</ele>
        <time>2019-03-30T15:17:11Z</time>
      </trkpt>
      <trkpt lat="48.40763" lon="-2.68006">
        <ele>138</ele>
        <time>2019-03-30T15:17:14Z</time>
      </trkpt>
      <trkpt lat="48.40758" lon="-2.68003">
        <ele>139</ele>
        <time>2019-03-30T15:17:19Z</time>
      </trkpt>
      <trkpt lat="48.40753" lon="-2.68001">
        <ele>139</ele>
        <time>2019-03-30T15:17:23Z</time>
      </trkpt>
      <trkpt lat="48.40734" lon="-2.67963">
        <ele>139</ele>
        <time>2019-03-30T15:17:33Z</time>
      </trkpt>
      <trkpt lat="48.40733" lon="-2.67954">
        <ele>139</ele>
        <time>2019-03-30T15:17:35Z</time>
      </trkpt>
      <trkpt lat="48.40734" lon="-2.67945">
        <ele>138</ele>
        <time>2019-03-30T15:17:37Z</time>
      </trkpt>
      <trkpt lat="48.40735" lon="-2.67937">
        <ele>139</ele>
        <time>2019-03-30T15:17:40Z</time>
      </trkpt>
      <trkpt lat="48.40733" lon="-2.6793">
        <ele>140</ele>
        <time>2019-03-30T15:17:45Z</time>
      </trkpt>
      <trkpt lat="48.40727" lon="-2.67926">
        <ele>141</ele>
        <time>2019-03-30T15:17:48Z</time>
      </trkpt>
      <trkpt lat="48.40723" lon="-2.67922">
        <ele>142</ele>
        <time>2019-03-30T15:17:50Z</time>
      </trkpt>
      <trkpt lat="48.4071" lon="-2.67913">
        <ele>143</ele>
        <time>2019-03-30T15:17:58Z</time>
      </trkpt>
      <trkpt lat="48.40706" lon="-2.67909">
        <ele>143</ele>
        <time>2019-03-30T15:18:01Z</time>
      </trkpt>
      <trkpt lat="48.40701" lon="-2.67895">
        <ele>143</ele>
        <time>2019-03-30T15:18:07Z</time>
      </trkpt>
      <trkpt lat="48.40697" lon="-2.67887">
        <ele>144</ele>
        <time>2019-03-30T15:18:11Z</time>
      </trkpt>
      <trkpt lat="48.40693" lon="-2.67887">
        <ele>145</ele>
        <time>2019-03-30T15:18:15Z</time>
      </trkpt>
      <trkpt lat="48.40689" lon="-2.67891">
        <ele>148</ele>
        <time>2019-03-30T15:18:19Z</time>
      </trkpt>
      <trkpt lat="48.40688" lon="-2.6789">
        <ele>149</ele>
        <time>2019-03-30T15:18:30Z</time>
      </trkpt>
      <trkpt lat="48.40687" lon="-2.67883">
        <ele>149</ele>
        <time>2019-03-30T15:18:33Z</time>
      </trkpt>
      <trkpt lat="48.40682" lon="-2.67882">
        <ele>149</ele>
        <time>2019-03-30T15:18:36Z</time>
      </trkpt>
      <trkpt lat="48.40676" lon="-2.67882">
        <ele>145</ele>
        <time>2019-03-30T15:18:39Z</time>
      </trkpt>
      <trkpt lat="48.40671" lon="-2.67885">
        <ele>143</ele>
        <time>2019-03-30T15:18:43Z</time>
      </trkpt>
      <trkpt lat="48.4066" lon="-2.67884">
        <ele>141</ele>
        <time>2019-03-30T15:18:49Z</time>
      </trkpt>
      <trkpt lat="48.40655" lon="-2.67886">
        <ele>140</ele>
        <time>2019-03-30T15:18:52Z</time>
      </trkpt>
      <trkpt lat="48.40649" lon="-2.67887">
        <ele>138</ele>
        <time>2019-03-30T15:18:55Z</time>
      </trkpt>
      <trkpt lat="48.40643" lon="-2.67887">
        <ele>137</ele>
        <time>2019-03-30T15:18:59Z</time>
      </trkpt>
      <trkpt lat="48.4064" lon="-2.67882">
        <ele>136</ele>
        <time>2019-03-30T15:19:04Z</time>
      </trkpt>
      <trkpt lat="48.40642" lon="-2.67877">
        <ele>135</ele>
        <time>2019-03-30T15:19:08Z</time>
      </trkpt>
      <trkpt lat="48.40655" lon="-2.67823">
        <ele>132</ele>
        <time>2019-03-30T15:19:21Z</time>
      </trkpt>
      <trkpt lat="48.40655" lon="-2.67804">
        <ele>132</ele>
        <time>2019-03-30T15:19:25Z</time>
      </trkpt>
      <trkpt lat="48.40653" lon="-2.67796">
        <ele>132</ele>
        <time>2019-03-30T15:19:27Z</time>
      </trkpt>
      <trkpt lat="48.40634" lon="-2.67782">
        <ele>131</ele>
        <time>2019-03-30T15:19:33Z</time>
      </trkpt>
      <trkpt lat="48.40557" lon="-2.67765">
        <ele>132</ele>
        <time>2019-03-30T15:19:57Z</time>
      </trkpt>
      <trkpt lat="48.40544" lon="-2.67759">
        <ele>132</ele>
        <time>2019-03-30T15:20:01Z</time>
      </trkpt>
      <trkpt lat="48.40528" lon="-2.67753">
        <ele>129</ele>
        <time>2019-03-30T15:20:12Z</time>
      </trkpt>
      <trkpt lat="48.40473" lon="-2.67749">
        <ele>125</ele>
        <time>2019-03-30T15:20:32Z</time>
      </trkpt>
      <trkpt lat="48.40419" lon="-2.67714">
        <ele>129</ele>
        <time>2019-03-30T15:20:59Z</time>
      </trkpt>
      <trkpt lat="48.40409" lon="-2.67711">
        <ele>129</ele>
        <time>2019-03-30T15:21:05Z</time>
      </trkpt>
      <trkpt lat="48.40383" lon="-2.67716">
        <ele>125</ele>
        <time>2019-03-30T15:21:24Z</time>
      </trkpt>
      <trkpt lat="48.40377" lon="-2.67718">
        <ele>125</ele>
        <time>2019-03-30T15:21:28Z</time>
      </trkpt>
      <trkpt lat="48.40302" lon="-2.67729">
        <ele>123</ele>
        <time>2019-03-30T15:21:58Z</time>
      </trkpt>
      <trkpt lat="48.40291" lon="-2.67731">
        <ele>122</ele>
        <time>2019-03-30T15:22:05Z</time>
      </trkpt>
      <trkpt lat="48.40281" lon="-2.67729">
        <ele>120</ele>
        <time>2019-03-30T15:22:11Z</time>
      </trkpt>
      <trkpt lat="48.40277" lon="-2.67727">
        <ele>120</ele>
        <time>2019-03-30T15:22:14Z</time>
      </trkpt>
      <trkpt lat="48.40275" lon="-2.67712">
        <ele>122</ele>
        <time>2019-03-30T15:22:22Z</time>
      </trkpt>
      <trkpt lat="48.40275" lon="-2.67704">
        <ele>123</ele>
        <time>2019-03-30T15:22:27Z</time>
      </trkpt>
      <trkpt lat="48.40272" lon="-2.67699">
        <ele>126</ele>
        <time>2019-03-30T15:22:31Z</time>
      </trkpt>
      <trkpt lat="48.40275" lon="-2.67692">
        <ele>127</ele>
        <time>2019-03-30T15:22:35Z</time>
      </trkpt>
      <trkpt lat="48.40275" lon="-2.67685">
        <ele>128</ele>
        <time>2019-03-30T15:22:41Z</time>
      </trkpt>
      <trkpt lat="48.40322" lon="-2.67596">
        <ele>135</ele>
        <time>2019-03-30T15:23:10Z</time>
      </trkpt>
      <trkpt lat="48.4034" lon="-2.67531">
        <ele>137</ele>
        <time>2019-03-30T15:23:26Z</time>
      </trkpt>
      <trkpt lat="48.40344" lon="-2.67524">
        <ele>137</ele>
        <time>2019-03-30T15:23:29Z</time>
      </trkpt>
      <trkpt lat="48.40352" lon="-2.67501">
        <ele>139</ele>
        <time>2019-03-30T15:23:37Z</time>
      </trkpt>
      <trkpt lat="48.40354" lon="-2.67488">
        <ele>140</ele>
        <time>2019-03-30T15:23:42Z</time>
      </trkpt>
      <trkpt lat="48.40352" lon="-2.6748">
        <ele>141</ele>
        <time>2019-03-30T15:23:45Z</time>
      </trkpt>
      <trkpt lat="48.4036" lon="-2.67457">
        <ele>143</ele>
        <time>2019-03-30T15:23:54Z</time>
      </trkpt>
      <trkpt lat="48.40362" lon="-2.67449">
        <ele>144</ele>
        <time>2019-03-30T15:23:58Z</time>
      </trkpt>
      <trkpt lat="48.40366" lon="-2.6742">
        <ele>148</ele>
        <time>2019-03-30T15:24:13Z</time>
      </trkpt>
      <trkpt lat="48.40366" lon="-2.67401">
        <ele>152</ele>
        <time>2019-03-30T15:24:21Z</time>
      </trkpt>
      <trkpt lat="48.40368" lon="-2.67386">
        <ele>153</ele>
        <time>2019-03-30T15:24:29Z</time>
      </trkpt>
      <trkpt lat="48.40377" lon="-2.67374">
        <ele>152</ele>
        <time>2019-03-30T15:24:41Z</time>
      </trkpt>
      <trkpt lat="48.40382" lon="-2.67371">
        <ele>153</ele>
        <time>2019-03-30T15:24:59Z</time>
      </trkpt>
      <trkpt lat="48.40404" lon="-2.67381">
        <ele>152</ele>
        <time>2019-03-30T15:25:14Z</time>
      </trkpt>
      <trkpt lat="48.40407" lon="-2.67387">
        <ele>146</ele>
        <time>2019-03-30T15:25:24Z</time>
      </trkpt>
      <trkpt lat="48.40425" lon="-2.67392">
        <ele>136</ele>
        <time>2019-03-30T15:25:33Z</time>
      </trkpt>
      <trkpt lat="48.40429" lon="-2.67391">
        <ele>136</ele>
        <time>2019-03-30T15:25:35Z</time>
      </trkpt>
      <trkpt lat="48.40435" lon="-2.67393">
        <ele>136</ele>
        <time>2019-03-30T15:25:39Z</time>
      </trkpt>
      <trkpt lat="48.40439" lon="-2.67397">
        <ele>136</ele>
        <time>2019-03-30T15:25:43Z</time>
      </trkpt>
      <trkpt lat="48.40443" lon="-2.67399">
        <ele>136</ele>
        <time>2019-03-30T15:25:48Z</time>
      </trkpt>
      <trkpt lat="48.40446" lon="-2.67392">
        <ele>137</ele>
        <time>2019-03-30T15:25:53Z</time>
      </trkpt>
      <trkpt lat="48.40454" lon="-2.67369">
        <ele>135</ele>
        <time>2019-03-30T15:26:05Z</time>
      </trkpt>
      <trkpt lat="48.40454" lon="-2.67362">
        <ele>135</ele>
        <time>2019-03-30T15:26:08Z</time>
      </trkpt>
      <trkpt lat="48.40456" lon="-2.67354">
        <ele>135</ele>
        <time>2019-03-30T15:26:12Z</time>
      </trkpt>
      <trkpt lat="48.40463" lon="-2.67343">
        <ele>135</ele>
        <time>2019-03-30T15:26:18Z</time>
      </trkpt>
      <trkpt lat="48.40466" lon="-2.67338">
        <ele>136</ele>
        <time>2019-03-30T15:26:52Z</time>
      </trkpt>
      <trkpt lat="48.40468" lon="-2.67331">
        <ele>136</ele>
        <time>2019-03-30T15:26:56Z</time>
      </trkpt>
      <trkpt lat="48.40469" lon="-2.67322">
        <ele>137</ele>
        <time>2019-03-30T15:27:00Z</time>
      </trkpt>
      <trkpt lat="48.4047" lon="-2.67315">
        <ele>138</ele>
        <time>2019-03-30T15:27:03Z</time>
      </trkpt>
      <trkpt lat="48.40471" lon="-2.67306">
        <ele>139</ele>
        <time>2019-03-30T15:27:07Z</time>
      </trkpt>
      <trkpt lat="48.40479" lon="-2.67288">
        <ele>141</ele>
        <time>2019-03-30T15:27:18Z</time>
      </trkpt>
      <trkpt lat="48.40484" lon="-2.67284">
        <ele>141</ele>
        <time>2019-03-30T15:27:21Z</time>
      </trkpt>
      <trkpt lat="48.40498" lon="-2.67262">
        <ele>143</ele>
        <time>2019-03-30T15:27:34Z</time>
      </trkpt>
      <trkpt lat="48.40505" lon="-2.6725">
        <ele>144</ele>
        <time>2019-03-30T15:27:40Z</time>
      </trkpt>
      <trkpt lat="48.40512" lon="-2.67237">
        <ele>143</ele>
        <time>2019-03-30T15:27:47Z</time>
      </trkpt>
      <trkpt lat="48.40524" lon="-2.67225">
        <ele>138</ele>
        <time>2019-03-30T15:27:57Z</time>
      </trkpt>
      <trkpt lat="48.40528" lon="-2.67217">
        <ele>137</ele>
        <time>2019-03-30T15:28:00Z</time>
      </trkpt>
      <trkpt lat="48.40546" lon="-2.67192">
        <ele>136</ele>
        <time>2019-03-30T15:28:21Z</time>
      </trkpt>
      <trkpt lat="48.40546" lon="-2.67187">
        <ele>136</ele>
        <time>2019-03-30T15:28:33Z</time>
      </trkpt>
      <trkpt lat="48.40545" lon="-2.6718">
        <ele>136</ele>
        <time>2019-03-30T15:28:56Z</time>
      </trkpt>
      <trkpt lat="48.40537" lon="-2.67171">
        <ele>136</ele>
        <time>2019-03-30T15:29:04Z</time>
      </trkpt>
      <trkpt lat="48.40534" lon="-2.67165">
        <ele>137</ele>
        <time>2019-03-30T15:29:08Z</time>
      </trkpt>
      <trkpt lat="48.40517" lon="-2.6715">
        <ele>141</ele>
        <time>2019-03-30T15:29:21Z</time>
      </trkpt>
      <trkpt lat="48.40491" lon="-2.67117">
        <ele>141</ele>
        <time>2019-03-30T15:29:47Z</time>
      </trkpt>
      <trkpt lat="48.40478" lon="-2.67107">
        <ele>141</ele>
        <time>2019-03-30T15:29:57Z</time>
      </trkpt>
      <trkpt lat="48.40475" lon="-2.671">
        <ele>141</ele>
        <time>2019-03-30T15:30:04Z</time>
      </trkpt>
      <trkpt lat="48.4047" lon="-2.67098">
        <ele>140</ele>
        <time>2019-03-30T15:30:08Z</time>
      </trkpt>
      <trkpt lat="48.40446" lon="-2.67067">
        <ele>136</ele>
        <time>2019-03-30T15:30:40Z</time>
      </trkpt>
      <trkpt lat="48.40434" lon="-2.67054">
        <ele>136</ele>
        <time>2019-03-30T15:30:49Z</time>
      </trkpt>
      <trkpt lat="48.40429" lon="-2.6703">
        <ele>133</ele>
        <time>2019-03-30T15:31:05Z</time>
      </trkpt>
      <trkpt lat="48.40427" lon="-2.67022">
        <ele>133</ele>
        <time>2019-03-30T15:31:08Z</time>
      </trkpt>
      <trkpt lat="48.4043" lon="-2.67017">
        <ele>133</ele>
        <time>2019-03-30T15:31:11Z</time>
      </trkpt>
      <trkpt lat="48.40428" lon="-2.6701">
        <ele>133</ele>
        <time>2019-03-30T15:31:17Z</time>
      </trkpt>
      <trkpt lat="48.4043" lon="-2.67003">
        <ele>134</ele>
        <time>2019-03-30T15:31:24Z</time>
      </trkpt>
      <trkpt lat="48.40436" lon="-2.67">
        <ele>133</ele>
        <time>2019-03-30T15:31:27Z</time>
      </trkpt>
      <trkpt lat="48.40456" lon="-2.6698">
        <ele>129</ele>
        <time>2019-03-30T15:31:39Z</time>
      </trkpt>
      <trkpt lat="48.40467" lon="-2.66954">
        <ele>130</ele>
        <time>2019-03-30T15:31:56Z</time>
      </trkpt>
      <trkpt lat="48.40463" lon="-2.66948">
        <ele>130</ele>
        <time>2019-03-30T15:31:59Z</time>
      </trkpt>
      <trkpt lat="48.40461" lon="-2.6693">
        <ele>132</ele>
        <time>2019-03-30T15:32:06Z</time>
      </trkpt>
      <trkpt lat="48.40468" lon="-2.66793">
        <ele>129</ele>
        <time>2019-03-30T15:32:36Z</time>
      </trkpt>
      <trkpt lat="48.40481" lon="-2.66716">
        <ele>128</ele>
        <time>2019-03-30T15:32:55Z</time>
      </trkpt>
      <trkpt lat="48.40485" lon="-2.6671">
        <ele>128</ele>
        <time>2019-03-30T15:32:58Z</time>
      </trkpt>
      <trkpt lat="48.40489" lon="-2.66701">
        <ele>128</ele>
        <time>2019-03-30T15:33:01Z</time>
      </trkpt>
      <trkpt lat="48.4049" lon="-2.66693">
        <ele>128</ele>
        <time>2019-03-30T15:33:04Z</time>
      </trkpt>
      <trkpt lat="48.40491" lon="-2.66686">
        <ele>128</ele>
        <time>2019-03-30T15:33:09Z</time>
      </trkpt>
      <trkpt lat="48.40491" lon="-2.66678">
        <ele>128</ele>
        <time>2019-03-30T15:33:13Z</time>
      </trkpt>
      <trkpt lat="48.40489" lon="-2.66672">
        <ele>128</ele>
        <time>2019-03-30T15:33:16Z</time>
      </trkpt>
      <trkpt lat="48.40489" lon="-2.66663">
        <ele>128</ele>
        <time>2019-03-30T15:33:20Z</time>
      </trkpt>
      <trkpt lat="48.40492" lon="-2.66657">
        <ele>128</ele>
        <time>2019-03-30T15:33:23Z</time>
      </trkpt>
      <trkpt lat="48.40495" lon="-2.6665">
        <ele>128</ele>
        <time>2019-03-30T15:33:26Z</time>
      </trkpt>
      <trkpt lat="48.40497" lon="-2.66643">
        <ele>128</ele>
        <time>2019-03-30T15:33:29Z</time>
      </trkpt>
      <trkpt lat="48.40501" lon="-2.66639">
        <ele>128</ele>
        <time>2019-03-30T15:33:31Z</time>
      </trkpt>
      <trkpt lat="48.40504" lon="-2.66629">
        <ele>127</ele>
        <time>2019-03-30T15:33:34Z</time>
      </trkpt>
      <trkpt lat="48.40522" lon="-2.66597">
        <ele>125</ele>
        <time>2019-03-30T15:33:42Z</time>
      </trkpt>
      <trkpt lat="48.40526" lon="-2.6659">
        <ele>125</ele>
        <time>2019-03-30T15:33:44Z</time>
      </trkpt>
      <trkpt lat="48.40528" lon="-2.66583">
        <ele>126</ele>
        <time>2019-03-30T15:33:46Z</time>
      </trkpt>
      <trkpt lat="48.40529" lon="-2.66575">
        <ele>126</ele>
        <time>2019-03-30T15:33:48Z</time>
      </trkpt>
      <trkpt lat="48.40529" lon="-2.66565">
        <ele>127</ele>
        <time>2019-03-30T15:33:51Z</time>
      </trkpt>
      <trkpt lat="48.40537" lon="-2.66554">
        <ele>128</ele>
        <time>2019-03-30T15:33:57Z</time>
      </trkpt>
      <trkpt lat="48.40541" lon="-2.6655">
        <ele>128</ele>
        <time>2019-03-30T15:33:59Z</time>
      </trkpt>
      <trkpt lat="48.40546" lon="-2.66545">
        <ele>128</ele>
        <time>2019-03-30T15:34:02Z</time>
      </trkpt>
      <trkpt lat="48.40556" lon="-2.66527">
        <ele>127</ele>
        <time>2019-03-30T15:34:08Z</time>
      </trkpt>
      <trkpt lat="48.40558" lon="-2.6652">
        <ele>126</ele>
        <time>2019-03-30T15:34:11Z</time>
      </trkpt>
      <trkpt lat="48.40561" lon="-2.66514">
        <ele>124</ele>
        <time>2019-03-30T15:34:15Z</time>
      </trkpt>
      <trkpt lat="48.40563" lon="-2.66507">
        <ele>121</ele>
        <time>2019-03-30T15:34:20Z</time>
      </trkpt>
      <trkpt lat="48.40566" lon="-2.665">
        <ele>121</ele>
        <time>2019-03-30T15:34:24Z</time>
      </trkpt>
      <trkpt lat="48.40568" lon="-2.66494">
        <ele>120</ele>
        <time>2019-03-30T15:34:27Z</time>
      </trkpt>
      <trkpt lat="48.40571" lon="-2.66487">
        <ele>120</ele>
        <time>2019-03-30T15:34:30Z</time>
      </trkpt>
      <trkpt lat="48.4058" lon="-2.66467">
        <ele>119</ele>
        <time>2019-03-30T15:34:38Z</time>
      </trkpt>
      <trkpt lat="48.40589" lon="-2.66447">
        <ele>117</ele>
        <time>2019-03-30T15:34:48Z</time>
      </trkpt>
      <trkpt lat="48.40592" lon="-2.6644">
        <ele>117</ele>
        <time>2019-03-30T15:34:51Z</time>
      </trkpt>
      <trkpt lat="48.40592" lon="-2.66433">
        <ele>116</ele>
        <time>2019-03-30T15:34:55Z</time>
      </trkpt>
      <trkpt lat="48.40597" lon="-2.66419">
        <ele>115</ele>
        <time>2019-03-30T15:35:02Z</time>
      </trkpt>
      <trkpt lat="48.40604" lon="-2.66409">
        <ele>114</ele>
        <time>2019-03-30T15:35:06Z</time>
      </trkpt>
      <trkpt lat="48.40608" lon="-2.66404">
        <ele>113</ele>
        <time>2019-03-30T15:35:10Z</time>
      </trkpt>
      <trkpt lat="48.40609" lon="-2.66397">
        <ele>113</ele>
        <time>2019-03-30T15:35:14Z</time>
      </trkpt>
      <trkpt lat="48.40613" lon="-2.6639">
        <ele>113</ele>
        <time>2019-03-30T15:35:17Z</time>
      </trkpt>
      <trkpt lat="48.40622" lon="-2.66378">
        <ele>111</ele>
        <time>2019-03-30T15:35:24Z</time>
      </trkpt>
      <trkpt lat="48.40634" lon="-2.66371">
        <ele>110</ele>
        <time>2019-03-30T15:35:31Z</time>
      </trkpt>
      <trkpt lat="48.4064" lon="-2.66371">
        <ele>110</ele>
        <time>2019-03-30T15:35:34Z</time>
      </trkpt>
      <trkpt lat="48.40646" lon="-2.6637">
        <ele>110</ele>
        <time>2019-03-30T15:35:37Z</time>
      </trkpt>
      <trkpt lat="48.40659" lon="-2.66367">
        <ele>109</ele>
        <time>2019-03-30T15:35:42Z</time>
      </trkpt>
      <trkpt lat="48.4067" lon="-2.66361">
        <ele>109</ele>
        <time>2019-03-30T15:35:49Z</time>
      </trkpt>
      <trkpt lat="48.40672" lon="-2.66355">
        <ele>108</ele>
        <time>2019-03-30T15:35:52Z</time>
      </trkpt>
      <trkpt lat="48.40682" lon="-2.6635">
        <ele>109</ele>
        <time>2019-03-30T15:35:59Z</time>
      </trkpt>
      <trkpt lat="48.40688" lon="-2.66349">
        <ele>109</ele>
        <time>2019-03-30T15:36:03Z</time>
      </trkpt>
      <trkpt lat="48.40693" lon="-2.66348">
        <ele>110</ele>
        <time>2019-03-30T15:36:05Z</time>
      </trkpt>
      <trkpt lat="48.40694" lon="-2.66342">
        <ele>111</ele>
        <time>2019-03-30T15:36:19Z</time>
      </trkpt>
      <trkpt lat="48.40689" lon="-2.66339">
        <ele>111</ele>
        <time>2019-03-30T15:36:23Z</time>
      </trkpt>
      <trkpt lat="48.40674" lon="-2.66333">
        <ele>111</ele>
        <time>2019-03-30T15:36:32Z</time>
      </trkpt>
      <trkpt lat="48.40666" lon="-2.66324">
        <ele>109</ele>
        <time>2019-03-30T15:36:38Z</time>
      </trkpt>
      <trkpt lat="48.4066" lon="-2.66323">
        <ele>108</ele>
        <time>2019-03-30T15:36:43Z</time>
      </trkpt>
      <trkpt lat="48.40646" lon="-2.66323">
        <ele>105</ele>
        <time>2019-03-30T15:36:57Z</time>
      </trkpt>
      <trkpt lat="48.40639" lon="-2.66316">
        <ele>102</ele>
        <time>2019-03-30T15:37:11Z</time>
      </trkpt>
      <trkpt lat="48.40616" lon="-2.66316">
        <ele>99</ele>
        <time>2019-03-30T15:37:24Z</time>
      </trkpt>
      <trkpt lat="48.40611" lon="-2.66314">
        <ele>99</ele>
        <time>2019-03-30T15:37:28Z</time>
      </trkpt>
      <trkpt lat="48.40605" lon="-2.6631">
        <ele>99</ele>
        <time>2019-03-30T15:37:32Z</time>
      </trkpt>
      <trkpt lat="48.406" lon="-2.66305">
        <ele>99</ele>
        <time>2019-03-30T15:37:35Z</time>
      </trkpt>
      <trkpt lat="48.40586" lon="-2.66284">
        <ele>97</ele>
        <time>2019-03-30T15:37:48Z</time>
      </trkpt>
      <trkpt lat="48.40581" lon="-2.66285">
        <ele>97</ele>
        <time>2019-03-30T15:37:52Z</time>
      </trkpt>
      <trkpt lat="48.40571" lon="-2.66292">
        <ele>95</ele>
        <time>2019-03-30T15:37:59Z</time>
      </trkpt>
      <trkpt lat="48.40568" lon="-2.66299">
        <ele>94</ele>
        <time>2019-03-30T15:38:02Z</time>
      </trkpt>
      <trkpt lat="48.40565" lon="-2.66307">
        <ele>94</ele>
        <time>2019-03-30T15:38:05Z</time>
      </trkpt>
      <trkpt lat="48.40562" lon="-2.66316">
        <ele>93</ele>
        <time>2019-03-30T15:38:09Z</time>
      </trkpt>
      <trkpt lat="48.40556" lon="-2.66343">
        <ele>91</ele>
        <time>2019-03-30T15:38:17Z</time>
      </trkpt>
      <trkpt lat="48.40554" lon="-2.66351">
        <ele>91</ele>
        <time>2019-03-30T15:38:19Z</time>
      </trkpt>
      <trkpt lat="48.4055" lon="-2.6636">
        <ele>91</ele>
        <time>2019-03-30T15:38:22Z</time>
      </trkpt>
      <trkpt lat="48.40547" lon="-2.66369">
        <ele>91</ele>
        <time>2019-03-30T15:38:25Z</time>
      </trkpt>
      <trkpt lat="48.40545" lon="-2.66379">
        <ele>91</ele>
        <time>2019-03-30T15:38:26Z</time>
      </trkpt>
      <trkpt lat="48.40542" lon="-2.66386">
        <ele>92</ele>
        <time>2019-03-30T15:38:28Z</time>
      </trkpt>
      <trkpt lat="48.40538" lon="-2.6638">
        <ele>91</ele>
        <time>2019-03-30T15:38:33Z</time>
      </trkpt>
      <trkpt lat="48.40534" lon="-2.66375">
        <ele>90</ele>
        <time>2019-03-30T15:38:35Z</time>
      </trkpt>
      <trkpt lat="48.4051" lon="-2.66351">
        <ele>92</ele>
        <time>2019-03-30T15:38:42Z</time>
      </trkpt>
      <trkpt lat="48.40493" lon="-2.6632">
        <ele>92</ele>
        <time>2019-03-30T15:38:49Z</time>
      </trkpt>
      <trkpt lat="48.40486" lon="-2.66287">
        <ele>91</ele>
        <time>2019-03-30T15:38:53Z</time>
      </trkpt>
      <trkpt lat="48.4047" lon="-2.66108">
        <ele>84</ele>
        <time>2019-03-30T15:39:24Z</time>
      </trkpt>
      <trkpt lat="48.40464" lon="-2.66043">
        <ele>86</ele>
        <time>2019-03-30T15:39:38Z</time>
      </trkpt>
      <trkpt lat="48.40466" lon="-2.65999">
        <ele>86</ele>
        <time>2019-03-30T15:39:48Z</time>
      </trkpt>
      <trkpt lat="48.40471" lon="-2.65979">
        <ele>87</ele>
        <time>2019-03-30T15:39:52Z</time>
      </trkpt>
      <trkpt lat="48.4053" lon="-2.65857">
        <ele>93</ele>
        <time>2019-03-30T15:40:22Z</time>
      </trkpt>
      <trkpt lat="48.40539" lon="-2.65838">
        <ele>95</ele>
        <time>2019-03-30T15:40:30Z</time>
      </trkpt>
      <trkpt lat="48.40546" lon="-2.65825">
        <ele>95</ele>
        <time>2019-03-30T15:40:37Z</time>
      </trkpt>
      <trkpt lat="48.40547" lon="-2.65817">
        <ele>95</ele>
        <time>2019-03-30T15:40:41Z</time>
      </trkpt>
      <trkpt lat="48.4055" lon="-2.65802">
        <ele>93</ele>
        <time>2019-03-30T15:40:49Z</time>
      </trkpt>
      <trkpt lat="48.40551" lon="-2.65795">
        <ele>93</ele>
        <time>2019-03-30T15:40:53Z</time>
      </trkpt>
      <trkpt lat="48.40566" lon="-2.65752">
        <ele>92</ele>
        <time>2019-03-30T15:41:14Z</time>
      </trkpt>
      <trkpt lat="48.40578" lon="-2.65684">
        <ele>94</ele>
        <time>2019-03-30T15:41:48Z</time>
      </trkpt>
      <trkpt lat="48.40593" lon="-2.65615">
        <ele>87</ele>
        <time>2019-03-30T15:42:20Z</time>
      </trkpt>
      <trkpt lat="48.40598" lon="-2.6554">
        <ele>90</ele>
        <time>2019-03-30T15:42:50Z</time>
      </trkpt>
      <trkpt lat="48.40604" lon="-2.6552">
        <ele>88</ele>
        <time>2019-03-30T15:42:59Z</time>
      </trkpt>
      <trkpt lat="48.40612" lon="-2.65474">
        <ele>84</ele>
        <time>2019-03-30T15:43:20Z</time>
      </trkpt>
      <trkpt lat="48.40613" lon="-2.65458">
        <ele>84</ele>
        <time>2019-03-30T15:43:26Z</time>
      </trkpt>
      <trkpt lat="48.40617" lon="-2.65427">
        <ele>86</ele>
        <time>2019-03-30T15:43:38Z</time>
      </trkpt>
      <trkpt lat="48.40617" lon="-2.65419">
        <ele>86</ele>
        <time>2019-03-30T15:43:42Z</time>
      </trkpt>
      <trkpt lat="48.40618" lon="-2.65404">
        <ele>85</ele>
        <time>2019-03-30T15:43:49Z</time>
      </trkpt>
      <trkpt lat="48.40621" lon="-2.65397">
        <ele>84</ele>
        <time>2019-03-30T15:43:53Z</time>
      </trkpt>
      <trkpt lat="48.40621" lon="-2.65382">
        <ele>82</ele>
        <time>2019-03-30T15:44:00Z</time>
      </trkpt>
      <trkpt lat="48.40623" lon="-2.65366">
        <ele>81</ele>
        <time>2019-03-30T15:44:07Z</time>
      </trkpt>
      <trkpt lat="48.40621" lon="-2.65327">
        <ele>80</ele>
        <time>2019-03-30T15:44:23Z</time>
      </trkpt>
      <trkpt lat="48.40629" lon="-2.65278">
        <ele>80</ele>
        <time>2019-03-30T15:44:55Z</time>
      </trkpt>
      <trkpt lat="48.40634" lon="-2.6524">
        <ele>77</ele>
        <time>2019-03-30T15:45:12Z</time>
      </trkpt>
      <trkpt lat="48.40636" lon="-2.65231">
        <ele>77</ele>
        <time>2019-03-30T15:45:16Z</time>
      </trkpt>
      <trkpt lat="48.40638" lon="-2.65218">
        <ele>76</ele>
        <time>2019-03-30T15:45:22Z</time>
      </trkpt>
      <trkpt lat="48.40643" lon="-2.65196">
        <ele>75</ele>
        <time>2019-03-30T15:45:32Z</time>
      </trkpt>
      <trkpt lat="48.40645" lon="-2.65189">
        <ele>75</ele>
        <time>2019-03-30T15:45:36Z</time>
      </trkpt>
      <trkpt lat="48.40646" lon="-2.65181">
        <ele>75</ele>
        <time>2019-03-30T15:45:41Z</time>
      </trkpt>
      <trkpt lat="48.40647" lon="-2.65174">
        <ele>74</ele>
        <time>2019-03-30T15:45:44Z</time>
      </trkpt>
      <trkpt lat="48.40657" lon="-2.65135">
        <ele>72</ele>
        <time>2019-03-30T15:46:02Z</time>
      </trkpt>
      <trkpt lat="48.40676" lon="-2.65002">
        <ele>73</ele>
        <time>2019-03-30T15:46:32Z</time>
      </trkpt>
      <trkpt lat="48.40676" lon="-2.64995">
        <ele>74</ele>
        <time>2019-03-30T15:46:34Z</time>
      </trkpt>
      <trkpt lat="48.40677" lon="-2.64988">
        <ele>74</ele>
        <time>2019-03-30T15:46:36Z</time>
      </trkpt>
      <trkpt lat="48.40673" lon="-2.64932">
        <ele>72</ele>
        <time>2019-03-30T15:46:58Z</time>
      </trkpt>
      <trkpt lat="48.40673" lon="-2.64908">
        <ele>72</ele>
        <time>2019-03-30T15:47:07Z</time>
      </trkpt>
      <trkpt lat="48.40666" lon="-2.6476">
        <ele>70</ele>
        <time>2019-03-30T15:47:37Z</time>
      </trkpt>
      <trkpt lat="48.40652" lon="-2.64609">
        <ele>69</ele>
        <time>2019-03-30T15:48:07Z</time>
      </trkpt>
      <trkpt lat="48.40645" lon="-2.64545">
        <ele>68</ele>
        <time>2019-03-30T15:48:24Z</time>
      </trkpt>
      <trkpt lat="48.40638" lon="-2.6451">
        <ele>67</ele>
        <time>2019-03-30T15:48:38Z</time>
      </trkpt>
      <trkpt lat="48.40637" lon="-2.64503">
        <ele>67</ele>
        <time>2019-03-30T15:48:41Z</time>
      </trkpt>
      <trkpt lat="48.40635" lon="-2.64496">
        <ele>67</ele>
        <time>2019-03-30T15:48:45Z</time>
      </trkpt>
      <trkpt lat="48.40631" lon="-2.6448">
        <ele>66</ele>
        <time>2019-03-30T15:48:54Z</time>
      </trkpt>
      <trkpt lat="48.40626" lon="-2.64425">
        <ele>67</ele>
        <time>2019-03-30T15:49:16Z</time>
      </trkpt>
      <trkpt lat="48.40621" lon="-2.64393">
        <ele>68</ele>
        <time>2019-03-30T15:49:30Z</time>
      </trkpt>
      <trkpt lat="48.40622" lon="-2.64376">
        <ele>70</ele>
        <time>2019-03-30T15:49:36Z</time>
      </trkpt>
      <trkpt lat="48.40622" lon="-2.64353">
        <ele>74</ele>
        <time>2019-03-30T15:49:45Z</time>
      </trkpt>
      <trkpt lat="48.40621" lon="-2.64346">
        <ele>74</ele>
        <time>2019-03-30T15:49:49Z</time>
      </trkpt>
      <trkpt lat="48.40622" lon="-2.64337">
        <ele>75</ele>
        <time>2019-03-30T15:49:53Z</time>
      </trkpt>
      <trkpt lat="48.40623" lon="-2.64314">
        <ele>76</ele>
        <time>2019-03-30T15:50:05Z</time>
      </trkpt>
      <trkpt lat="48.40625" lon="-2.64305">
        <ele>76</ele>
        <time>2019-03-30T15:50:09Z</time>
      </trkpt>
      <trkpt lat="48.40626" lon="-2.64298">
        <ele>77</ele>
        <time>2019-03-30T15:50:12Z</time>
      </trkpt>
      <trkpt lat="48.40627" lon="-2.6429">
        <ele>77</ele>
        <time>2019-03-30T15:50:15Z</time>
      </trkpt>
      <trkpt lat="48.40628" lon="-2.64282">
        <ele>77</ele>
        <time>2019-03-30T15:50:19Z</time>
      </trkpt>
      <trkpt lat="48.40643" lon="-2.64214">
        <ele>76</ele>
        <time>2019-03-30T15:50:40Z</time>
      </trkpt>
      <trkpt lat="48.40651" lon="-2.6419">
        <ele>75</ele>
        <time>2019-03-30T15:50:46Z</time>
      </trkpt>
      <trkpt lat="48.4066" lon="-2.64132">
        <ele>74</ele>
        <time>2019-03-30T15:50:58Z</time>
      </trkpt>
      <trkpt lat="48.40668" lon="-2.64087">
        <ele>73</ele>
        <time>2019-03-30T15:51:08Z</time>
      </trkpt>
      <trkpt lat="48.4069" lon="-2.63968">
        <ele>73</ele>
        <time>2019-03-30T15:51:38Z</time>
      </trkpt>
      <trkpt lat="48.40691" lon="-2.63955">
        <ele>73</ele>
        <time>2019-03-30T15:51:44Z</time>
      </trkpt>
      <trkpt lat="48.40692" lon="-2.63946">
        <ele>73</ele>
        <time>2019-03-30T15:51:48Z</time>
      </trkpt>
      <trkpt lat="48.40697" lon="-2.63941">
        <ele>73</ele>
        <time>2019-03-30T15:51:52Z</time>
      </trkpt>
      <trkpt lat="48.40702" lon="-2.63943">
        <ele>73</ele>
        <time>2019-03-30T15:51:56Z</time>
      </trkpt>
      <trkpt lat="48.40783" lon="-2.64006">
        <ele>73</ele>
        <time>2019-03-30T15:52:22Z</time>
      </trkpt>
      <trkpt lat="48.40789" lon="-2.64009">
        <ele>73</ele>
        <time>2019-03-30T15:52:24Z</time>
      </trkpt>
      <trkpt lat="48.4091" lon="-2.64093">
        <ele>72</ele>
        <time>2019-03-30T15:52:55Z</time>
      </trkpt>
      <trkpt lat="48.40923" lon="-2.64102">
        <ele>71</ele>
        <time>2019-03-30T15:52:59Z</time>
      </trkpt>
      <trkpt lat="48.40927" lon="-2.64106">
        <ele>71</ele>
        <time>2019-03-30T15:53:01Z</time>
      </trkpt>
      <trkpt lat="48.40933" lon="-2.64111">
        <ele>70</ele>
        <time>2019-03-30T15:53:03Z</time>
      </trkpt>
      <trkpt lat="48.40939" lon="-2.64117">
        <ele>69</ele>
        <time>2019-03-30T15:53:05Z</time>
      </trkpt>
      <trkpt lat="48.40944" lon="-2.64126">
        <ele>68</ele>
        <time>2019-03-30T15:53:07Z</time>
      </trkpt>
      <trkpt lat="48.40947" lon="-2.64136">
        <ele>68</ele>
        <time>2019-03-30T15:53:09Z</time>
      </trkpt>
      <trkpt lat="48.40944" lon="-2.64171">
        <ele>67</ele>
        <time>2019-03-30T15:53:14Z</time>
      </trkpt>
      <trkpt lat="48.40947" lon="-2.64216">
        <ele>68</ele>
        <time>2019-03-30T15:53:19Z</time>
      </trkpt>
      <trkpt lat="48.40958" lon="-2.64357">
        <ele>66</ele>
        <time>2019-03-30T15:53:39Z</time>
      </trkpt>
      <trkpt lat="48.40959" lon="-2.64375">
        <ele>66</ele>
        <time>2019-03-30T15:53:43Z</time>
      </trkpt>
      <trkpt lat="48.40968" lon="-2.64394">
        <ele>66</ele>
        <time>2019-03-30T15:53:53Z</time>
      </trkpt>
      <trkpt lat="48.40969" lon="-2.64401">
        <ele>66</ele>
        <time>2019-03-30T15:53:56Z</time>
      </trkpt>
      <trkpt lat="48.40968" lon="-2.64409">
        <ele>68</ele>
        <time>2019-03-30T15:54:01Z</time>
      </trkpt>
      <trkpt lat="48.40968" lon="-2.64417">
        <ele>68</ele>
        <time>2019-03-30T15:54:05Z</time>
      </trkpt>
      <trkpt lat="48.4097" lon="-2.64441">
        <ele>68</ele>
        <time>2019-03-30T15:54:17Z</time>
      </trkpt>
      <trkpt lat="48.4098" lon="-2.64582">
        <ele>67</ele>
        <time>2019-03-30T15:54:48Z</time>
      </trkpt>
      <trkpt lat="48.40993" lon="-2.64741">
        <ele>72</ele>
        <time>2019-03-30T15:55:11Z</time>
      </trkpt>
      <trkpt lat="48.40995" lon="-2.6475">
        <ele>73</ele>
        <time>2019-03-30T15:55:13Z</time>
      </trkpt>
      <trkpt lat="48.41006" lon="-2.64758">
        <ele>73</ele>
        <time>2019-03-30T15:55:16Z</time>
      </trkpt>
      <trkpt lat="48.41111" lon="-2.6478">
        <ele>75</ele>
        <time>2019-03-30T15:55:38Z</time>
      </trkpt>
      <trkpt lat="48.41192" lon="-2.64755">
        <ele>81</ele>
        <time>2019-03-30T15:56:11Z</time>
      </trkpt>
      <trkpt lat="48.41197" lon="-2.64756">
        <ele>80</ele>
        <time>2019-03-30T15:56:16Z</time>
      </trkpt>
      <trkpt lat="48.41226" lon="-2.64754">
        <ele>80</ele>
        <time>2019-03-30T15:56:38Z</time>
      </trkpt>
      <trkpt lat="48.41268" lon="-2.64757">
        <ele>81</ele>
        <time>2019-03-30T15:57:06Z</time>
      </trkpt>
      <trkpt lat="48.41274" lon="-2.64758">
        <ele>81</ele>
        <time>2019-03-30T15:57:10Z</time>
      </trkpt>
      <trkpt lat="48.41279" lon="-2.64758">
        <ele>81</ele>
        <time>2019-03-30T15:57:14Z</time>
      </trkpt>
      <trkpt lat="48.41289" lon="-2.64756">
        <ele>81</ele>
        <time>2019-03-30T15:57:20Z</time>
      </trkpt>
      <trkpt lat="48.41315" lon="-2.64755">
        <ele>84</ele>
        <time>2019-03-30T15:57:38Z</time>
      </trkpt>
      <trkpt lat="48.41334" lon="-2.64748">
        <ele>81</ele>
        <time>2019-03-30T15:57:55Z</time>
      </trkpt>
      <trkpt lat="48.41344" lon="-2.64739">
        <ele>81</ele>
        <time>2019-03-30T15:58:01Z</time>
      </trkpt>
      <trkpt lat="48.41348" lon="-2.64737">
        <ele>81</ele>
        <time>2019-03-30T15:58:04Z</time>
      </trkpt>
      <trkpt lat="48.41362" lon="-2.64725">
        <ele>82</ele>
        <time>2019-03-30T15:58:16Z</time>
      </trkpt>
      <trkpt lat="48.41377" lon="-2.64717">
        <ele>82</ele>
        <time>2019-03-30T15:58:28Z</time>
      </trkpt>
      <trkpt lat="48.41382" lon="-2.64718">
        <ele>82</ele>
        <time>2019-03-30T15:58:33Z</time>
      </trkpt>
      <trkpt lat="48.41387" lon="-2.64716">
        <ele>83</ele>
        <time>2019-03-30T15:58:37Z</time>
      </trkpt>
      <trkpt lat="48.41391" lon="-2.64712">
        <ele>84</ele>
        <time>2019-03-30T15:58:47Z</time>
      </trkpt>
      <trkpt lat="48.41395" lon="-2.64706">
        <ele>85</ele>
        <time>2019-03-30T15:58:51Z</time>
      </trkpt>
      <trkpt lat="48.41405" lon="-2.64701">
        <ele>85</ele>
        <time>2019-03-30T15:58:57Z</time>
      </trkpt>
      <trkpt lat="48.4141" lon="-2.64699">
        <ele>85</ele>
        <time>2019-03-30T15:59:00Z</time>
      </trkpt>
      <trkpt lat="48.41419" lon="-2.64696">
        <ele>84</ele>
        <time>2019-03-30T15:59:06Z</time>
      </trkpt>
      <trkpt lat="48.41422" lon="-2.64689">
        <ele>84</ele>
        <time>2019-03-30T15:59:10Z</time>
      </trkpt>
      <trkpt lat="48.41442" lon="-2.64677">
        <ele>83</ele>
        <time>2019-03-30T15:59:24Z</time>
      </trkpt>
      <trkpt lat="48.41482" lon="-2.64643">
        <ele>84</ele>
        <time>2019-03-30T15:59:39Z</time>
      </trkpt>
      <trkpt lat="48.41511" lon="-2.64626">
        <ele>84</ele>
        <time>2019-03-30T15:59:49Z</time>
      </trkpt>
      <trkpt lat="48.41541" lon="-2.64581">
        <ele>80</ele>
        <time>2019-03-30T16:00:16Z</time>
      </trkpt>
      <trkpt lat="48.41554" lon="-2.64566">
        <ele>78</ele>
        <time>2019-03-30T16:00:27Z</time>
      </trkpt>
      <trkpt lat="48.41581" lon="-2.64531">
        <ele>78</ele>
        <time>2019-03-30T16:00:52Z</time>
      </trkpt>
      <trkpt lat="48.41585" lon="-2.64527">
        <ele>78</ele>
        <time>2019-03-30T16:00:55Z</time>
      </trkpt>
      <trkpt lat="48.41594" lon="-2.64524">
        <ele>78</ele>
        <time>2019-03-30T16:01:02Z</time>
      </trkpt>
      <trkpt lat="48.41661" lon="-2.64469">
        <ele>73</ele>
        <time>2019-03-30T16:01:34Z</time>
      </trkpt>
      <trkpt lat="48.41675" lon="-2.64454">
        <ele>71</ele>
        <time>2019-03-30T16:01:40Z</time>
      </trkpt>
      <trkpt lat="48.41735" lon="-2.64356">
        <ele>71</ele>
        <time>2019-03-30T16:02:08Z</time>
      </trkpt>
      <trkpt lat="48.41762" lon="-2.64326">
        <ele>72</ele>
        <time>2019-03-30T16:02:22Z</time>
      </trkpt>
      <trkpt lat="48.41768" lon="-2.64323">
        <ele>72</ele>
        <time>2019-03-30T16:02:26Z</time>
      </trkpt>
      <trkpt lat="48.41777" lon="-2.64314">
        <ele>75</ele>
        <time>2019-03-30T16:02:34Z</time>
      </trkpt>
      <trkpt lat="48.41791" lon="-2.64304">
        <ele>76</ele>
        <time>2019-03-30T16:02:43Z</time>
      </trkpt>
      <trkpt lat="48.41795" lon="-2.64301">
        <ele>77</ele>
        <time>2019-03-30T16:02:46Z</time>
      </trkpt>
      <trkpt lat="48.41823" lon="-2.64283">
        <ele>76</ele>
        <time>2019-03-30T16:03:08Z</time>
      </trkpt>
      <trkpt lat="48.41828" lon="-2.64281">
        <ele>75</ele>
        <time>2019-03-30T16:03:14Z</time>
      </trkpt>
      <trkpt lat="48.41829" lon="-2.64294">
        <ele>73</ele>
        <time>2019-03-30T16:03:43Z</time>
      </trkpt>
      <trkpt lat="48.41834" lon="-2.64292">
        <ele>74</ele>
        <time>2019-03-30T16:04:41Z</time>
      </trkpt>
      <trkpt lat="48.41838" lon="-2.64295">
        <ele>74</ele>
        <time>2019-03-30T16:04:45Z</time>
      </trkpt>
      <trkpt lat="48.41841" lon="-2.64301">
        <ele>76</ele>
        <time>2019-03-30T16:04:48Z</time>
      </trkpt>
      <trkpt lat="48.41844" lon="-2.64324">
        <ele>78</ele>
        <time>2019-03-30T16:05:00Z</time>
      </trkpt>
      <trkpt lat="48.41846" lon="-2.64331">
        <ele>78</ele>
        <time>2019-03-30T16:05:04Z</time>
      </trkpt>
      <trkpt lat="48.4185" lon="-2.64337">
        <ele>79</ele>
        <time>2019-03-30T16:05:07Z</time>
      </trkpt>
      <trkpt lat="48.41855" lon="-2.64337">
        <ele>78</ele>
        <time>2019-03-30T16:05:10Z</time>
      </trkpt>
      <trkpt lat="48.4186" lon="-2.64336">
        <ele>78</ele>
        <time>2019-03-30T16:05:14Z</time>
      </trkpt>
      <trkpt lat="48.41864" lon="-2.64332">
        <ele>78</ele>
        <time>2019-03-30T16:05:18Z</time>
      </trkpt>
      <trkpt lat="48.41868" lon="-2.64326">
        <ele>78</ele>
        <time>2019-03-30T16:05:22Z</time>
      </trkpt>
      <trkpt lat="48.41881" lon="-2.64276">
        <ele>76</ele>
        <time>2019-03-30T16:05:45Z</time>
      </trkpt>
      <trkpt lat="48.41884" lon="-2.64244">
        <ele>79</ele>
        <time>2019-03-30T16:05:56Z</time>
      </trkpt>
      <trkpt lat="48.41885" lon="-2.64238">
        <ele>79</ele>
        <time>2019-03-30T16:05:59Z</time>
      </trkpt>
      <trkpt lat="48.41891" lon="-2.64223">
        <ele>79</ele>
        <time>2019-03-30T16:06:07Z</time>
      </trkpt>
      <trkpt lat="48.41894" lon="-2.64217">
        <ele>79</ele>
        <time>2019-03-30T16:06:10Z</time>
      </trkpt>
      <trkpt lat="48.41896" lon="-2.64209">
        <ele>79</ele>
        <time>2019-03-30T16:06:14Z</time>
      </trkpt>
      <trkpt lat="48.41911" lon="-2.64144">
        <ele>78</ele>
        <time>2019-03-30T16:06:44Z</time>
      </trkpt>
      <trkpt lat="48.41915" lon="-2.64131">
        <ele>77</ele>
        <time>2019-03-30T16:06:50Z</time>
      </trkpt>
      <trkpt lat="48.41917" lon="-2.64116">
        <ele>78</ele>
        <time>2019-03-30T16:06:58Z</time>
      </trkpt>
      <trkpt lat="48.4192" lon="-2.64103">
        <ele>78</ele>
        <time>2019-03-30T16:07:05Z</time>
      </trkpt>
      <trkpt lat="48.41922" lon="-2.64096">
        <ele>78</ele>
        <time>2019-03-30T16:07:10Z</time>
      </trkpt>
      <trkpt lat="48.41924" lon="-2.64087">
        <ele>76</ele>
        <time>2019-03-30T16:07:14Z</time>
      </trkpt>
      <trkpt lat="48.41926" lon="-2.64072">
        <ele>75</ele>
        <time>2019-03-30T16:07:21Z</time>
      </trkpt>
      <trkpt lat="48.41928" lon="-2.64066">
        <ele>75</ele>
        <time>2019-03-30T16:07:26Z</time>
      </trkpt>
      <trkpt lat="48.41933" lon="-2.64063">
        <ele>76</ele>
        <time>2019-03-30T16:07:30Z</time>
      </trkpt>
      <trkpt lat="48.41943" lon="-2.64067">
        <ele>77</ele>
        <time>2019-03-30T16:07:37Z</time>
      </trkpt>
      <trkpt lat="48.41948" lon="-2.64071">
        <ele>76</ele>
        <time>2019-03-30T16:07:41Z</time>
      </trkpt>
      <trkpt lat="48.41953" lon="-2.64074">
        <ele>76</ele>
        <time>2019-03-30T16:07:45Z</time>
      </trkpt>
      <trkpt lat="48.41958" lon="-2.64077">
        <ele>76</ele>
        <time>2019-03-30T16:07:50Z</time>
      </trkpt>
      <trkpt lat="48.42001" lon="-2.64084">
        <ele>78</ele>
        <time>2019-03-30T16:08:20Z</time>
      </trkpt>
      <trkpt lat="48.42027" lon="-2.64086">
        <ele>80</ele>
        <time>2019-03-30T16:08:39Z</time>
      </trkpt>
      <trkpt lat="48.42031" lon="-2.64088">
        <ele>81</ele>
        <time>2019-03-30T16:08:43Z</time>
      </trkpt>
      <trkpt lat="48.42047" lon="-2.64089">
        <ele>83</ele>
        <time>2019-03-30T16:08:54Z</time>
      </trkpt>
      <trkpt lat="48.42053" lon="-2.64089">
        <ele>83</ele>
        <time>2019-03-30T16:08:58Z</time>
      </trkpt>
      <trkpt lat="48.42058" lon="-2.64091">
        <ele>82</ele>
        <time>2019-03-30T16:09:01Z</time>
      </trkpt>
      <trkpt lat="48.42104" lon="-2.64086">
        <ele>77</ele>
        <time>2019-03-30T16:09:33Z</time>
      </trkpt>
      <trkpt lat="48.42109" lon="-2.64088">
        <ele>75</ele>
        <time>2019-03-30T16:09:37Z</time>
      </trkpt>
      <trkpt lat="48.42124" lon="-2.64086">
        <ele>74</ele>
        <time>2019-03-30T16:09:48Z</time>
      </trkpt>
      <trkpt lat="48.4213" lon="-2.64086">
        <ele>73</ele>
        <time>2019-03-30T16:09:52Z</time>
      </trkpt>
      <trkpt lat="48.4215" lon="-2.64084">
        <ele>73</ele>
        <time>2019-03-30T16:10:06Z</time>
      </trkpt>
      <trkpt lat="48.42155" lon="-2.64084">
        <ele>72</ele>
        <time>2019-03-30T16:10:09Z</time>
      </trkpt>
      <trkpt lat="48.42204" lon="-2.64075">
        <ele>70</ele>
        <time>2019-03-30T16:10:40Z</time>
      </trkpt>
      <trkpt lat="48.42213" lon="-2.64074">
        <ele>70</ele>
        <time>2019-03-30T16:10:46Z</time>
      </trkpt>
      <trkpt lat="48.42265" lon="-2.64085">
        <ele>69</ele>
        <time>2019-03-30T16:11:18Z</time>
      </trkpt>
      <trkpt lat="48.42285" lon="-2.64091">
        <ele>70</ele>
        <time>2019-03-30T16:11:32Z</time>
      </trkpt>
      <trkpt lat="48.42305" lon="-2.64096">
        <ele>72</ele>
        <time>2019-03-30T16:11:45Z</time>
      </trkpt>
      <trkpt lat="48.4231" lon="-2.64094">
        <ele>72</ele>
        <time>2019-03-30T16:11:49Z</time>
      </trkpt>
      <trkpt lat="48.4233" lon="-2.641">
        <ele>70</ele>
        <time>2019-03-30T16:12:02Z</time>
      </trkpt>
      <trkpt lat="48.42334" lon="-2.64104">
        <ele>70</ele>
        <time>2019-03-30T16:12:05Z</time>
      </trkpt>
      <trkpt lat="48.42339" lon="-2.64118">
        <ele>70</ele>
        <time>2019-03-30T16:12:12Z</time>
      </trkpt>
      <trkpt lat="48.42344" lon="-2.642">
        <ele>68</ele>
        <time>2019-03-30T16:12:43Z</time>
      </trkpt>
      <trkpt lat="48.42344" lon="-2.64207">
        <ele>68</ele>
        <time>2019-03-30T16:12:46Z</time>
      </trkpt>
      <trkpt lat="48.42347" lon="-2.64237">
        <ele>68</ele>
        <time>2019-03-30T16:12:59Z</time>
      </trkpt>
      <trkpt lat="48.42348" lon="-2.64246">
        <ele>68</ele>
        <time>2019-03-30T16:13:03Z</time>
      </trkpt>
      <trkpt lat="48.42348" lon="-2.6427">
        <ele>69</ele>
        <time>2019-03-30T16:13:11Z</time>
      </trkpt>
      <trkpt lat="48.42348" lon="-2.64279">
        <ele>69</ele>
        <time>2019-03-30T16:13:15Z</time>
      </trkpt>
      <trkpt lat="48.42353" lon="-2.64305">
        <ele>70</ele>
        <time>2019-03-30T16:13:25Z</time>
      </trkpt>
      <trkpt lat="48.42364" lon="-2.64342">
        <ele>70</ele>
        <time>2019-03-30T16:13:40Z</time>
      </trkpt>
      <trkpt lat="48.42366" lon="-2.64349">
        <ele>69</ele>
        <time>2019-03-30T16:13:43Z</time>
      </trkpt>
      <trkpt lat="48.42367" lon="-2.64355">
        <ele>69</ele>
        <time>2019-03-30T16:13:46Z</time>
      </trkpt>
      <trkpt lat="48.4237" lon="-2.64361">
        <ele>69</ele>
        <time>2019-03-30T16:13:49Z</time>
      </trkpt>
      <trkpt lat="48.42375" lon="-2.64364">
        <ele>69</ele>
        <time>2019-03-30T16:13:52Z</time>
      </trkpt>
      <trkpt lat="48.4238" lon="-2.64368">
        <ele>69</ele>
        <time>2019-03-30T16:13:56Z</time>
      </trkpt>
      <trkpt lat="48.42422" lon="-2.64374">
        <ele>67</ele>
        <time>2019-03-30T16:14:26Z</time>
      </trkpt>
      <trkpt lat="48.42442" lon="-2.64372">
        <ele>65</ele>
        <time>2019-03-30T16:14:39Z</time>
      </trkpt>
      <trkpt lat="48.42443" lon="-2.64379">
        <ele>63</ele>
        <time>2019-03-30T16:14:51Z</time>
      </trkpt>
      <trkpt lat="48.42448" lon="-2.64382">
        <ele>62</ele>
        <time>2019-03-30T16:15:01Z</time>
      </trkpt>
      <trkpt lat="48.42453" lon="-2.64383">
        <ele>62</ele>
        <time>2019-03-30T16:15:05Z</time>
      </trkpt>
      <trkpt lat="48.42458" lon="-2.64388">
        <ele>62</ele>
        <time>2019-03-30T16:15:10Z</time>
      </trkpt>
      <trkpt lat="48.42462" lon="-2.64393">
        <ele>63</ele>
        <time>2019-03-30T16:15:13Z</time>
      </trkpt>
      <trkpt lat="48.42468" lon="-2.64406">
        <ele>65</ele>
        <time>2019-03-30T16:15:18Z</time>
      </trkpt>
      <trkpt lat="48.42475" lon="-2.64415">
        <ele>66</ele>
        <time>2019-03-30T16:15:22Z</time>
      </trkpt>
      <trkpt lat="48.42479" lon="-2.64425">
        <ele>66</ele>
        <time>2019-03-30T16:15:24Z</time>
      </trkpt>
      <trkpt lat="48.42484" lon="-2.64425">
        <ele>66</ele>
        <time>2019-03-30T16:15:27Z</time>
      </trkpt>
      <trkpt lat="48.42514" lon="-2.6441">
        <ele>67</ele>
        <time>2019-03-30T16:15:35Z</time>
      </trkpt>
      <trkpt lat="48.4252" lon="-2.64405">
        <ele>67</ele>
        <time>2019-03-30T16:15:37Z</time>
      </trkpt>
      <trkpt lat="48.42525" lon="-2.64399">
        <ele>67</ele>
        <time>2019-03-30T16:15:40Z</time>
      </trkpt>
      <trkpt lat="48.42543" lon="-2.64382">
        <ele>71</ele>
        <time>2019-03-30T16:15:49Z</time>
      </trkpt>
      <trkpt lat="48.42546" lon="-2.64373">
        <ele>71</ele>
        <time>2019-03-30T16:15:52Z</time>
      </trkpt>
      <trkpt lat="48.42554" lon="-2.64352">
        <ele>73</ele>
        <time>2019-03-30T16:16:02Z</time>
      </trkpt>
      <trkpt lat="48.42557" lon="-2.64346">
        <ele>74</ele>
        <time>2019-03-30T16:16:05Z</time>
      </trkpt>
      <trkpt lat="48.4256" lon="-2.64341">
        <ele>77</ele>
        <time>2019-03-30T16:16:09Z</time>
      </trkpt>
      <trkpt lat="48.4257" lon="-2.64335">
        <ele>80</ele>
        <time>2019-03-30T16:16:17Z</time>
      </trkpt>
      <trkpt lat="48.42589" lon="-2.64313">
        <ele>79</ele>
        <time>2019-03-30T16:16:31Z</time>
      </trkpt>
      <trkpt lat="48.42594" lon="-2.64309">
        <ele>79</ele>
        <time>2019-03-30T16:16:33Z</time>
      </trkpt>
      <trkpt lat="48.42602" lon="-2.64298">
        <ele>79</ele>
        <time>2019-03-30T16:16:38Z</time>
      </trkpt>
      <trkpt lat="48.42642" lon="-2.6427">
        <ele>75</ele>
        <time>2019-03-30T16:16:50Z</time>
      </trkpt>
      <trkpt lat="48.42666" lon="-2.64261">
        <ele>75</ele>
        <time>2019-03-30T16:16:55Z</time>
      </trkpt>
      <trkpt lat="48.42677" lon="-2.64256">
        <ele>75</ele>
        <time>2019-03-30T16:16:57Z</time>
      </trkpt>
      <trkpt lat="48.42681" lon="-2.64253">
        <ele>75</ele>
        <time>2019-03-30T16:16:58Z</time>
      </trkpt>
      <trkpt lat="48.42685" lon="-2.64249">
        <ele>75</ele>
        <time>2019-03-30T16:16:59Z</time>
      </trkpt>
      <trkpt lat="48.42694" lon="-2.64221">
        <ele>75</ele>
        <time>2019-03-30T16:17:03Z</time>
      </trkpt>
      <trkpt lat="48.42696" lon="-2.64212">
        <ele>75</ele>
        <time>2019-03-30T16:17:05Z</time>
      </trkpt>
      <trkpt lat="48.42723" lon="-2.64195">
        <ele>75</ele>
        <time>2019-03-30T16:17:16Z</time>
      </trkpt>
      <trkpt lat="48.42732" lon="-2.64185">
        <ele>75</ele>
        <time>2019-03-30T16:17:22Z</time>
      </trkpt>
      <trkpt lat="48.42734" lon="-2.64179">
        <ele>75</ele>
        <time>2019-03-30T16:17:25Z</time>
      </trkpt>
      <trkpt lat="48.42733" lon="-2.64171">
        <ele>75</ele>
        <time>2019-03-30T16:17:41Z</time>
      </trkpt>
      <trkpt lat="48.42733" lon="-2.64162">
        <ele>75</ele>
        <time>2019-03-30T16:17:45Z</time>
      </trkpt>
      <trkpt lat="48.42733" lon="-2.64153">
        <ele>74</ele>
        <time>2019-03-30T16:17:48Z</time>
      </trkpt>
      <trkpt lat="48.42733" lon="-2.64138">
        <ele>74</ele>
        <time>2019-03-30T16:17:52Z</time>
      </trkpt>
      <trkpt lat="48.42736" lon="-2.64115">
        <ele>72</ele>
        <time>2019-03-30T16:17:58Z</time>
      </trkpt>
      <trkpt lat="48.42733" lon="-2.64089">
        <ele>69</ele>
        <time>2019-03-30T16:18:03Z</time>
      </trkpt>
      <trkpt lat="48.42736" lon="-2.64057">
        <ele>66</ele>
        <time>2019-03-30T16:18:07Z</time>
      </trkpt>
      <trkpt lat="48.42745" lon="-2.63978">
        <ele>62</ele>
        <time>2019-03-30T16:18:18Z</time>
      </trkpt>
      <trkpt lat="48.42749" lon="-2.639">
        <ele>60</ele>
        <time>2019-03-30T16:18:30Z</time>
      </trkpt>
      <trkpt lat="48.42751" lon="-2.63874">
        <ele>60</ele>
        <time>2019-03-30T16:18:37Z</time>
      </trkpt>
      <trkpt lat="48.42749" lon="-2.63857">
        <ele>60</ele>
        <time>2019-03-30T16:18:42Z</time>
      </trkpt>
      <trkpt lat="48.42748" lon="-2.63848">
        <ele>61</ele>
        <time>2019-03-30T16:18:45Z</time>
      </trkpt>
      <trkpt lat="48.42749" lon="-2.63839">
        <ele>62</ele>
        <time>2019-03-30T16:18:49Z</time>
      </trkpt>
      <trkpt lat="48.42749" lon="-2.63832">
        <ele>62</ele>
        <time>2019-03-30T16:18:52Z</time>
      </trkpt>
      <trkpt lat="48.42752" lon="-2.63808">
        <ele>64</ele>
        <time>2019-03-30T16:19:02Z</time>
      </trkpt>
      <trkpt lat="48.42756" lon="-2.63803">
        <ele>65</ele>
        <time>2019-03-30T16:19:06Z</time>
      </trkpt>
      <trkpt lat="48.42762" lon="-2.63805">
        <ele>65</ele>
        <time>2019-03-30T16:19:10Z</time>
      </trkpt>
      <trkpt lat="48.42765" lon="-2.63811">
        <ele>65</ele>
        <time>2019-03-30T16:19:14Z</time>
      </trkpt>
      <trkpt lat="48.42779" lon="-2.63825">
        <ele>64</ele>
        <time>2019-03-30T16:19:25Z</time>
      </trkpt>
      <trkpt lat="48.42794" lon="-2.63836">
        <ele>63</ele>
        <time>2019-03-30T16:19:35Z</time>
      </trkpt>
      <trkpt lat="48.428" lon="-2.63839">
        <ele>63</ele>
        <time>2019-03-30T16:19:39Z</time>
      </trkpt>
      <trkpt lat="48.42836" lon="-2.63854">
        <ele>59</ele>
        <time>2019-03-30T16:20:09Z</time>
      </trkpt>
      <trkpt lat="48.42851" lon="-2.63859">
        <ele>59</ele>
        <time>2019-03-30T16:20:18Z</time>
      </trkpt>
      <trkpt lat="48.4286" lon="-2.63867">
        <ele>59</ele>
        <time>2019-03-30T16:20:25Z</time>
      </trkpt>
      <trkpt lat="48.42864" lon="-2.63872">
        <ele>59</ele>
        <time>2019-03-30T16:20:28Z</time>
      </trkpt>
      <trkpt lat="48.42869" lon="-2.63875">
        <ele>60</ele>
        <time>2019-03-30T16:20:31Z</time>
      </trkpt>
      <trkpt lat="48.42875" lon="-2.63878">
        <ele>61</ele>
        <time>2019-03-30T16:20:34Z</time>
      </trkpt>
      <trkpt lat="48.42879" lon="-2.6388">
        <ele>61</ele>
        <time>2019-03-30T16:20:44Z</time>
      </trkpt>
      <trkpt lat="48.42901" lon="-2.63879">
        <ele>63</ele>
        <time>2019-03-30T16:21:02Z</time>
      </trkpt>
      <trkpt lat="48.42906" lon="-2.6388">
        <ele>63</ele>
        <time>2019-03-30T16:21:06Z</time>
      </trkpt>
      <trkpt lat="48.42941" lon="-2.63894">
        <ele>61</ele>
        <time>2019-03-30T16:21:45Z</time>
      </trkpt>
      <trkpt lat="48.42946" lon="-2.63894">
        <ele>60</ele>
        <time>2019-03-30T16:21:49Z</time>
      </trkpt>
      <trkpt lat="48.42987" lon="-2.63889">
        <ele>60</ele>
        <time>2019-03-30T16:22:18Z</time>
      </trkpt>
      <trkpt lat="48.42992" lon="-2.63887">
        <ele>60</ele>
        <time>2019-03-30T16:22:21Z</time>
      </trkpt>
      <trkpt lat="48.42997" lon="-2.63885">
        <ele>60</ele>
        <time>2019-03-30T16:22:26Z</time>
      </trkpt>
      <trkpt lat="48.43026" lon="-2.63882">
        <ele>57</ele>
        <time>2019-03-30T16:22:48Z</time>
      </trkpt>
      <trkpt lat="48.43037" lon="-2.63879">
        <ele>56</ele>
        <time>2019-03-30T16:22:55Z</time>
      </trkpt>
      <trkpt lat="48.43041" lon="-2.63874">
        <ele>56</ele>
        <time>2019-03-30T16:22:59Z</time>
      </trkpt>
      <trkpt lat="48.43045" lon="-2.63869">
        <ele>57</ele>
        <time>2019-03-30T16:23:03Z</time>
      </trkpt>
      <trkpt lat="48.43049" lon="-2.63865">
        <ele>56</ele>
        <time>2019-03-30T16:23:09Z</time>
      </trkpt>
      <trkpt lat="48.43058" lon="-2.63858">
        <ele>57</ele>
        <time>2019-03-30T16:23:17Z</time>
      </trkpt>
      <trkpt lat="48.43063" lon="-2.63856">
        <ele>58</ele>
        <time>2019-03-30T16:23:21Z</time>
      </trkpt>
      <trkpt lat="48.43067" lon="-2.63859">
        <ele>59</ele>
        <time>2019-03-30T16:23:27Z</time>
      </trkpt>
      <trkpt lat="48.43073" lon="-2.63859">
        <ele>60</ele>
        <time>2019-03-30T16:23:31Z</time>
      </trkpt>
      <trkpt lat="48.43077" lon="-2.63864">
        <ele>60</ele>
        <time>2019-03-30T16:23:35Z</time>
      </trkpt>
      <trkpt lat="48.43082" lon="-2.63871">
        <ele>61</ele>
        <time>2019-03-30T16:23:38Z</time>
      </trkpt>
      <trkpt lat="48.43087" lon="-2.63876">
        <ele>61</ele>
        <time>2019-03-30T16:23:41Z</time>
      </trkpt>
      <trkpt lat="48.43088" lon="-2.63883">
        <ele>60</ele>
        <time>2019-03-30T16:23:44Z</time>
      </trkpt>
      <trkpt lat="48.43092" lon="-2.6389">
        <ele>60</ele>
        <time>2019-03-30T16:23:47Z</time>
      </trkpt>
      <trkpt lat="48.43097" lon="-2.63904">
        <ele>60</ele>
        <time>2019-03-30T16:23:54Z</time>
      </trkpt>
      <trkpt lat="48.43097" lon="-2.63911">
        <ele>60</ele>
        <time>2019-03-30T16:23:57Z</time>
      </trkpt>
      <trkpt lat="48.43097" lon="-2.63918">
        <ele>59</ele>
        <time>2019-03-30T16:24:00Z</time>
      </trkpt>
      <trkpt lat="48.43101" lon="-2.63942">
        <ele>58</ele>
        <time>2019-03-30T16:24:11Z</time>
      </trkpt>
      <trkpt lat="48.43105" lon="-2.64015">
        <ele>61</ele>
        <time>2019-03-30T16:24:42Z</time>
      </trkpt>
      <trkpt lat="48.43106" lon="-2.64023">
        <ele>61</ele>
        <time>2019-03-30T16:24:46Z</time>
      </trkpt>
      <trkpt lat="48.43108" lon="-2.64031">
        <ele>62</ele>
        <time>2019-03-30T16:24:50Z</time>
      </trkpt>
      <trkpt lat="48.43113" lon="-2.64056">
        <ele>64</ele>
        <time>2019-03-30T16:25:02Z</time>
      </trkpt>
      <trkpt lat="48.43114" lon="-2.64072">
        <ele>64</ele>
        <time>2019-03-30T16:25:09Z</time>
      </trkpt>
      <trkpt lat="48.43114" lon="-2.64081">
        <ele>64</ele>
        <time>2019-03-30T16:25:13Z</time>
      </trkpt>
      <trkpt lat="48.43118" lon="-2.64094">
        <ele>63</ele>
        <time>2019-03-30T16:25:21Z</time>
      </trkpt>
      <trkpt lat="48.43122" lon="-2.64099">
        <ele>62</ele>
        <time>2019-03-30T16:25:26Z</time>
      </trkpt>
      <trkpt lat="48.43126" lon="-2.64103">
        <ele>62</ele>
        <time>2019-03-30T16:25:31Z</time>
      </trkpt>
      <trkpt lat="48.4313" lon="-2.64107">
        <ele>62</ele>
        <time>2019-03-30T16:25:48Z</time>
      </trkpt>
      <trkpt lat="48.4314" lon="-2.64108">
        <ele>64</ele>
        <time>2019-03-30T16:25:55Z</time>
      </trkpt>
      <trkpt lat="48.43145" lon="-2.64111">
        <ele>65</ele>
        <time>2019-03-30T16:25:58Z</time>
      </trkpt>
      <trkpt lat="48.43159" lon="-2.64123">
        <ele>66</ele>
        <time>2019-03-30T16:26:07Z</time>
      </trkpt>
      <trkpt lat="48.43196" lon="-2.64151">
        <ele>68</ele>
        <time>2019-03-30T16:26:27Z</time>
      </trkpt>
      <trkpt lat="48.43223" lon="-2.64182">
        <ele>68</ele>
        <time>2019-03-30T16:26:39Z</time>
      </trkpt>
      <trkpt lat="48.43236" lon="-2.64198">
        <ele>69</ele>
        <time>2019-03-30T16:26:45Z</time>
      </trkpt>
      <trkpt lat="48.4325" lon="-2.64213">
        <ele>68</ele>
        <time>2019-03-30T16:26:51Z</time>
      </trkpt>
      <trkpt lat="48.43256" lon="-2.64218">
        <ele>68</ele>
        <time>2019-03-30T16:26:54Z</time>
      </trkpt>
      <trkpt lat="48.4326" lon="-2.64221">
        <ele>69</ele>
        <time>2019-03-30T16:26:57Z</time>
      </trkpt>
      <trkpt lat="48.43298" lon="-2.64265">
        <ele>68</ele>
        <time>2019-03-30T16:27:28Z</time>
      </trkpt>
      <trkpt lat="48.43315" lon="-2.64277">
        <ele>67</ele>
        <time>2019-03-30T16:27:43Z</time>
      </trkpt>
      <trkpt lat="48.43339" lon="-2.64295">
        <ele>67</ele>
        <time>2019-03-30T16:27:59Z</time>
      </trkpt>
      <trkpt lat="48.43381" lon="-2.64332">
        <ele>70</ele>
        <time>2019-03-30T16:28:31Z</time>
      </trkpt>
      <trkpt lat="48.43393" lon="-2.64345">
        <ele>72</ele>
        <time>2019-03-30T16:28:40Z</time>
      </trkpt>
      <trkpt lat="48.43402" lon="-2.64355">
        <ele>71</ele>
        <time>2019-03-30T16:28:49Z</time>
      </trkpt>
      <trkpt lat="48.43405" lon="-2.6436">
        <ele>70</ele>
        <time>2019-03-30T16:28:53Z</time>
      </trkpt>
      <trkpt lat="48.4341" lon="-2.64363">
        <ele>70</ele>
        <time>2019-03-30T16:28:57Z</time>
      </trkpt>
      <trkpt lat="48.43414" lon="-2.64358">
        <ele>70</ele>
        <time>2019-03-30T16:29:02Z</time>
      </trkpt>
      <trkpt lat="48.4341" lon="-2.64356">
        <ele>71</ele>
        <time>2019-03-30T16:29:27Z</time>
      </trkpt>
      <trkpt lat="48.43406" lon="-2.64311">
        <ele>71</ele>
        <time>2019-03-30T16:29:48Z</time>
      </trkpt>
      <trkpt lat="48.43408" lon="-2.64305">
        <ele>70</ele>
        <time>2019-03-30T16:29:51Z</time>
      </trkpt>
      <trkpt lat="48.43409" lon="-2.64297">
        <ele>70</ele>
        <time>2019-03-30T16:29:55Z</time>
      </trkpt>
      <trkpt lat="48.43432" lon="-2.64281">
        <ele>71</ele>
        <time>2019-03-30T16:30:08Z</time>
      </trkpt>
      <trkpt lat="48.43442" lon="-2.64277">
        <ele>71</ele>
        <time>2019-03-30T16:30:13Z</time>
      </trkpt>
      <trkpt lat="48.43461" lon="-2.64278">
        <ele>69</ele>
        <time>2019-03-30T16:30:19Z</time>
      </trkpt>
      <trkpt lat="48.4349" lon="-2.64284">
        <ele>67</ele>
        <time>2019-03-30T16:30:27Z</time>
      </trkpt>
      <trkpt lat="48.43498" lon="-2.64283">
        <ele>67</ele>
        <time>2019-03-30T16:30:29Z</time>
      </trkpt>
      <trkpt lat="48.43505" lon="-2.6428">
        <ele>67</ele>
        <time>2019-03-30T16:30:31Z</time>
      </trkpt>
      <trkpt lat="48.43516" lon="-2.64242">
        <ele>67</ele>
        <time>2019-03-30T16:30:37Z</time>
      </trkpt>
      <trkpt lat="48.43521" lon="-2.6419">
        <ele>65</ele>
        <time>2019-03-30T16:30:43Z</time>
      </trkpt>
      <trkpt lat="48.43527" lon="-2.64151">
        <ele>64</ele>
        <time>2019-03-30T16:30:50Z</time>
      </trkpt>
      <trkpt lat="48.43531" lon="-2.64143">
        <ele>64</ele>
        <time>2019-03-30T16:30:52Z</time>
      </trkpt>
      <trkpt lat="48.43587" lon="-2.64147">
        <ele>65</ele>
        <time>2019-03-30T16:31:05Z</time>
      </trkpt>
      <trkpt lat="48.43594" lon="-2.64146">
        <ele>65</ele>
        <time>2019-03-30T16:31:07Z</time>
      </trkpt>
      <trkpt lat="48.436" lon="-2.64146">
        <ele>65</ele>
        <time>2019-03-30T16:31:10Z</time>
      </trkpt>
      <trkpt lat="48.43619" lon="-2.64167">
        <ele>64</ele>
        <time>2019-03-30T16:31:18Z</time>
      </trkpt>
      <trkpt lat="48.43663" lon="-2.64168">
        <ele>63</ele>
        <time>2019-03-30T16:31:32Z</time>
      </trkpt>
      <trkpt lat="48.43687" lon="-2.64159">
        <ele>65</ele>
        <time>2019-03-30T16:31:42Z</time>
      </trkpt>
      <trkpt lat="48.43703" lon="-2.64161">
        <ele>69</ele>
        <time>2019-03-30T16:31:51Z</time>
      </trkpt>
      <trkpt lat="48.43728" lon="-2.64178">
        <ele>73</ele>
        <time>2019-03-30T16:32:12Z</time>
      </trkpt>
      <trkpt lat="48.43753" lon="-2.64194">
        <ele>74</ele>
        <time>2019-03-30T16:32:29Z</time>
      </trkpt>
      <trkpt lat="48.43757" lon="-2.64189">
        <ele>75</ele>
        <time>2019-03-30T16:32:34Z</time>
      </trkpt>
      <trkpt lat="48.43767" lon="-2.64183">
        <ele>76</ele>
        <time>2019-03-30T16:32:41Z</time>
      </trkpt>
      <trkpt lat="48.43772" lon="-2.64179">
        <ele>76</ele>
        <time>2019-03-30T16:32:45Z</time>
      </trkpt>
      <trkpt lat="48.43777" lon="-2.64179">
        <ele>76</ele>
        <time>2019-03-30T16:32:48Z</time>
      </trkpt>
      <trkpt lat="48.43841" lon="-2.64248">
        <ele>76</ele>
        <time>2019-03-30T16:33:19Z</time>
      </trkpt>
      <trkpt lat="48.43855" lon="-2.64266">
        <ele>77</ele>
        <time>2019-03-30T16:33:25Z</time>
      </trkpt>
      <trkpt lat="48.43862" lon="-2.64279">
        <ele>77</ele>
        <time>2019-03-30T16:33:29Z</time>
      </trkpt>
      <trkpt lat="48.43864" lon="-2.64288">
        <ele>78</ele>
        <time>2019-03-30T16:33:32Z</time>
      </trkpt>
      <trkpt lat="48.43879" lon="-2.64329">
        <ele>80</ele>
        <time>2019-03-30T16:33:52Z</time>
      </trkpt>
      <trkpt lat="48.43899" lon="-2.64354">
        <ele>83</ele>
        <time>2019-03-30T16:34:09Z</time>
      </trkpt>
      <trkpt lat="48.43906" lon="-2.64366">
        <ele>84</ele>
        <time>2019-03-30T16:34:15Z</time>
      </trkpt>
      <trkpt lat="48.43931" lon="-2.644">
        <ele>82</ele>
        <time>2019-03-30T16:34:38Z</time>
      </trkpt>
      <trkpt lat="48.43946" lon="-2.64409">
        <ele>82</ele>
        <time>2019-03-30T16:34:51Z</time>
      </trkpt>
      <trkpt lat="48.43973" lon="-2.6441">
        <ele>80</ele>
        <time>2019-03-30T16:35:07Z</time>
      </trkpt>
      <trkpt lat="48.43978" lon="-2.64411">
        <ele>79</ele>
        <time>2019-03-30T16:35:10Z</time>
      </trkpt>
      <trkpt lat="48.43995" lon="-2.64419">
        <ele>79</ele>
        <time>2019-03-30T16:35:19Z</time>
      </trkpt>
      <trkpt lat="48.44034" lon="-2.64445">
        <ele>77</ele>
        <time>2019-03-30T16:35:51Z</time>
      </trkpt>
      <trkpt lat="48.44042" lon="-2.64455">
        <ele>75</ele>
        <time>2019-03-30T16:35:58Z</time>
      </trkpt>
      <trkpt lat="48.44046" lon="-2.64468">
        <ele>74</ele>
        <time>2019-03-30T16:36:04Z</time>
      </trkpt>
      <trkpt lat="48.44045" lon="-2.64476">
        <ele>74</ele>
        <time>2019-03-30T16:37:09Z</time>
      </trkpt>
      <trkpt lat="48.44055" lon="-2.64513">
        <ele>72</ele>
        <time>2019-03-30T16:37:31Z</time>
      </trkpt>
      <trkpt lat="48.44059" lon="-2.64518">
        <ele>72</ele>
        <time>2019-03-30T16:37:35Z</time>
      </trkpt>
      <trkpt lat="48.44077" lon="-2.64548">
        <ele>74</ele>
        <time>2019-03-30T16:37:53Z</time>
      </trkpt>
      <trkpt lat="48.44098" lon="-2.64573">
        <ele>76</ele>
        <time>2019-03-30T16:38:13Z</time>
      </trkpt>
      <trkpt lat="48.44103" lon="-2.64585">
        <ele>75</ele>
        <time>2019-03-30T16:38:22Z</time>
      </trkpt>
      <trkpt lat="48.4411" lon="-2.64596">
        <ele>75</ele>
        <time>2019-03-30T16:38:31Z</time>
      </trkpt>
      <trkpt lat="48.44113" lon="-2.64604">
        <ele>75</ele>
        <time>2019-03-30T16:38:36Z</time>
      </trkpt>
      <trkpt lat="48.44111" lon="-2.64611">
        <ele>73</ele>
        <time>2019-03-30T16:38:42Z</time>
      </trkpt>
      <trkpt lat="48.44086" lon="-2.64625">
        <ele>70</ele>
        <time>2019-03-30T16:39:09Z</time>
      </trkpt>
      <trkpt lat="48.44071" lon="-2.64635">
        <ele>72</ele>
        <time>2019-03-30T16:39:20Z</time>
      </trkpt>
      <trkpt lat="48.44054" lon="-2.64658">
        <ele>75</ele>
        <time>2019-03-30T16:39:37Z</time>
      </trkpt>
      <trkpt lat="48.44051" lon="-2.64675">
        <ele>75</ele>
        <time>2019-03-30T16:39:55Z</time>
      </trkpt>
      <trkpt lat="48.44046" lon="-2.64758">
        <ele>74</ele>
        <time>2019-03-30T16:40:26Z</time>
      </trkpt>
      <trkpt lat="48.44046" lon="-2.64782">
        <ele>77</ele>
        <time>2019-03-30T16:40:37Z</time>
      </trkpt>
      <trkpt lat="48.44047" lon="-2.6479">
        <ele>77</ele>
        <time>2019-03-30T16:40:41Z</time>
      </trkpt>
      <trkpt lat="48.44049" lon="-2.64797">
        <ele>77</ele>
        <time>2019-03-30T16:40:44Z</time>
      </trkpt>
      <trkpt lat="48.44057" lon="-2.64807">
        <ele>77</ele>
        <time>2019-03-30T16:40:50Z</time>
      </trkpt>
      <trkpt lat="48.44061" lon="-2.64814">
        <ele>78</ele>
        <time>2019-03-30T16:40:54Z</time>
      </trkpt>
      <trkpt lat="48.44061" lon="-2.64821">
        <ele>78</ele>
        <time>2019-03-30T16:40:59Z</time>
      </trkpt>
      <trkpt lat="48.44065" lon="-2.64828">
        <ele>78</ele>
        <time>2019-03-30T16:41:03Z</time>
      </trkpt>
      <trkpt lat="48.44065" lon="-2.64835">
        <ele>78</ele>
        <time>2019-03-30T16:41:07Z</time>
      </trkpt>
      <trkpt lat="48.44066" lon="-2.64857">
        <ele>77</ele>
        <time>2019-03-30T16:41:17Z</time>
      </trkpt>
      <trkpt lat="48.44068" lon="-2.64864">
        <ele>77</ele>
        <time>2019-03-30T16:41:20Z</time>
      </trkpt>
      <trkpt lat="48.44068" lon="-2.64872">
        <ele>77</ele>
        <time>2019-03-30T16:41:24Z</time>
      </trkpt>
      <trkpt lat="48.4407" lon="-2.64879">
        <ele>78</ele>
        <time>2019-03-30T16:41:28Z</time>
      </trkpt>
      <trkpt lat="48.44068" lon="-2.64886">
        <ele>78</ele>
        <time>2019-03-30T16:41:32Z</time>
      </trkpt>
      <trkpt lat="48.4406" lon="-2.64896">
        <ele>77</ele>
        <time>2019-03-30T16:41:42Z</time>
      </trkpt>
      <trkpt lat="48.44055" lon="-2.64899">
        <ele>77</ele>
        <time>2019-03-30T16:41:45Z</time>
      </trkpt>
      <trkpt lat="48.4404" lon="-2.6492">
        <ele>79</ele>
        <time>2019-03-30T16:42:00Z</time>
      </trkpt>
      <trkpt lat="48.44035" lon="-2.64925">
        <ele>79</ele>
        <time>2019-03-30T16:42:04Z</time>
      </trkpt>
      <trkpt lat="48.44003" lon="-2.64964">
        <ele>84</ele>
        <time>2019-03-30T16:42:37Z</time>
      </trkpt>
      <trkpt lat="48.43999" lon="-2.64969">
        <ele>84</ele>
        <time>2019-03-30T16:42:40Z</time>
      </trkpt>
      <trkpt lat="48.43994" lon="-2.64975">
        <ele>84</ele>
        <time>2019-03-30T16:42:46Z</time>
      </trkpt>
      <trkpt lat="48.43985" lon="-2.64979">
        <ele>84</ele>
        <time>2019-03-30T16:42:55Z</time>
      </trkpt>
    </trkseg>
  </trk>
</gpx>